<?xml version="1.0" encoding="UTF-8" standalone="no" ?>
<gpx xmlns="http://www.topografix.com/GPX/1/1" xmlns:xsi="http://www.w3.org/2001/XMLSchema-instance" xsi:schemaLocation="http://www.topografix.com/GPX/1/1 http://www.topografix.com/GPX/1/1/gpx.xsd" version="1.1" creator="VisuGPX - https://www.visugpx.com">
  <metadata>
    <name>08-05-2017 Ciney - Chevetogne et retour.</name>
    <desc><![CDATA[Itinéraire de détente en vélo électrique (VTC). ]]></desc>
  </metadata>
  <trk>
    <name><![CDATA[Tracé 8 juin 2017 17:28:59]]></name>
    <trkseg>
      <trkpt lat="50.29408" lon="5.09536">
        <ele>286.90286832047</ele>
        <time>2017-06-08T15:28:59Z</time>
      </trkpt>
      <trkpt lat="50.29408" lon="5.09536">
        <ele>286.90286832047</ele>
        <time>2017-06-08T15:29:18Z</time>
      </trkpt>
      <trkpt lat="50.29428" lon="5.09534">
        <ele>271.15431921873</ele>
        <time>2017-06-08T15:29:23Z</time>
      </trkpt>
      <trkpt lat="50.29431" lon="5.09545">
        <ele>251.62028099013</ele>
        <time>2017-06-08T15:29:40Z</time>
      </trkpt>
      <trkpt lat="50.29423" lon="5.09549">
        <ele>258.16829266298</ele>
        <time>2017-06-08T15:29:58Z</time>
      </trkpt>
      <trkpt lat="50.29418" lon="5.09559">
        <ele>257.74984785614</ele>
        <time>2017-06-08T15:30:06Z</time>
      </trkpt>
      <trkpt lat="50.29424" lon="5.09577">
        <ele>256.8395665649</ele>
        <time>2017-06-08T15:30:11Z</time>
      </trkpt>
      <trkpt lat="50.29434" lon="5.09601">
        <ele>250.7867893296</ele>
        <time>2017-06-08T15:30:16Z</time>
      </trkpt>
      <trkpt lat="50.29443" lon="5.09622">
        <ele>247.88311616391</ele>
        <time>2017-06-08T15:30:20Z</time>
      </trkpt>
      <trkpt lat="50.29458" lon="5.09651">
        <ele>247.18002415635</ele>
        <time>2017-06-08T15:30:25Z</time>
      </trkpt>
      <trkpt lat="50.2947" lon="5.0967">
        <ele>247.69204816672</ele>
        <time>2017-06-08T15:30:30Z</time>
      </trkpt>
      <trkpt lat="50.29484" lon="5.09694">
        <ele>251.33266605135</ele>
        <time>2017-06-08T15:30:35Z</time>
      </trkpt>
      <trkpt lat="50.29488" lon="5.097">
        <ele>251.68478831915</ele>
        <time>2017-06-08T15:30:36Z</time>
      </trkpt>
      <trkpt lat="50.29584" lon="5.09856">
        <ele>245.64009819624</ele>
        <time>2017-06-08T15:31:02Z</time>
      </trkpt>
      <trkpt lat="50.29596" lon="5.09877">
        <ele>245.26277297771</ele>
        <time>2017-06-08T15:31:05Z</time>
      </trkpt>
      <trkpt lat="50.29612" lon="5.09903">
        <ele>242.69626571322</ele>
        <time>2017-06-08T15:31:09Z</time>
      </trkpt>
      <trkpt lat="50.29634" lon="5.09923">
        <ele>242.04129077836</ele>
        <time>2017-06-08T15:31:14Z</time>
      </trkpt>
      <trkpt lat="50.29653" lon="5.09939">
        <ele>246.74480999734</ele>
        <time>2017-06-08T15:31:18Z</time>
      </trkpt>
      <trkpt lat="50.29672" lon="5.09955">
        <ele>255.77822887942</ele>
        <time>2017-06-08T15:31:22Z</time>
      </trkpt>
      <trkpt lat="50.29672" lon="5.09976">
        <ele>261.53314801895</ele>
        <time>2017-06-08T15:31:26Z</time>
      </trkpt>
      <trkpt lat="50.29666" lon="5.09988">
        <ele>262.64965921793</ele>
        <time>2017-06-08T15:31:28Z</time>
      </trkpt>
      <trkpt lat="50.29655" lon="5.10015">
        <ele>263.96336414533</ele>
        <time>2017-06-08T15:31:42Z</time>
      </trkpt>
      <trkpt lat="50.29635" lon="5.10038">
        <ele>261.87407255408</ele>
        <time>2017-06-08T15:31:46Z</time>
      </trkpt>
      <trkpt lat="50.29617" lon="5.1006">
        <ele>258.88801650207</ele>
        <time>2017-06-08T15:31:50Z</time>
      </trkpt>
      <trkpt lat="50.29602" lon="5.10074">
        <ele>258.87802083283</ele>
        <time>2017-06-08T15:31:54Z</time>
      </trkpt>
      <trkpt lat="50.29585" lon="5.10058">
        <ele>258.35459348429</ele>
        <time>2017-06-08T15:31:59Z</time>
      </trkpt>
      <trkpt lat="50.2958" lon="5.10049">
        <ele>258.869931907</ele>
        <time>2017-06-08T15:32:01Z</time>
      </trkpt>
      <trkpt lat="50.29565" lon="5.1003">
        <ele>258.26357493345</ele>
        <time>2017-06-08T15:32:06Z</time>
      </trkpt>
      <trkpt lat="50.29541" lon="5.10009">
        <ele>258.04362746034</ele>
        <time>2017-06-08T15:32:10Z</time>
      </trkpt>
      <trkpt lat="50.29525" lon="5.10019">
        <ele>257.12520057827</ele>
        <time>2017-06-08T15:32:14Z</time>
      </trkpt>
      <trkpt lat="50.2951" lon="5.10044">
        <ele>256.44928067461</ele>
        <time>2017-06-08T15:32:19Z</time>
      </trkpt>
      <trkpt lat="50.29496" lon="5.10069">
        <ele>254.62782825059</ele>
        <time>2017-06-08T15:32:23Z</time>
      </trkpt>
      <trkpt lat="50.2948" lon="5.10094">
        <ele>254.30315385894</ele>
        <time>2017-06-08T15:32:27Z</time>
      </trkpt>
      <trkpt lat="50.29464" lon="5.10114">
        <ele>255.39810274001</ele>
        <time>2017-06-08T15:32:31Z</time>
      </trkpt>
      <trkpt lat="50.2946" lon="5.10142">
        <ele>253.96172100309</ele>
        <time>2017-06-08T15:32:36Z</time>
      </trkpt>
      <trkpt lat="50.29474" lon="5.10168">
        <ele>254.93974104198</ele>
        <time>2017-06-08T15:32:40Z</time>
      </trkpt>
      <trkpt lat="50.2949" lon="5.10207">
        <ele>254.7571829682</ele>
        <time>2017-06-08T15:32:45Z</time>
      </trkpt>
      <trkpt lat="50.29504" lon="5.10241">
        <ele>254.51444073395</ele>
        <time>2017-06-08T15:32:49Z</time>
      </trkpt>
      <trkpt lat="50.29514" lon="5.10265">
        <ele>255.23787596278</ele>
        <time>2017-06-08T15:32:52Z</time>
      </trkpt>
      <trkpt lat="50.29537" lon="5.10328">
        <ele>258.94102651462</ele>
        <time>2017-06-08T15:33:01Z</time>
      </trkpt>
      <trkpt lat="50.29549" lon="5.10359">
        <ele>259.16754840814</ele>
        <time>2017-06-08T15:33:05Z</time>
      </trkpt>
      <trkpt lat="50.29561" lon="5.10382">
        <ele>261.29068270876</ele>
        <time>2017-06-08T15:33:09Z</time>
      </trkpt>
      <trkpt lat="50.2957" lon="5.10401">
        <ele>262.60119087211</ele>
        <time>2017-06-08T15:33:13Z</time>
      </trkpt>
      <trkpt lat="50.29581" lon="5.10415">
        <ele>263.59918261281</ele>
        <time>2017-06-08T15:33:18Z</time>
      </trkpt>
      <trkpt lat="50.2958" lon="5.10427">
        <ele>264.79151652503</ele>
        <time>2017-06-08T15:33:22Z</time>
      </trkpt>
      <trkpt lat="50.29569" lon="5.10439">
        <ele>266.39658999814</ele>
        <time>2017-06-08T15:33:27Z</time>
      </trkpt>
      <trkpt lat="50.29558" lon="5.10457">
        <ele>266.98668545627</ele>
        <time>2017-06-08T15:33:32Z</time>
      </trkpt>
      <trkpt lat="50.29548" lon="5.10471">
        <ele>266.87838765761</ele>
        <time>2017-06-08T15:33:36Z</time>
      </trkpt>
      <trkpt lat="50.29531" lon="5.10498">
        <ele>265.74446334215</ele>
        <time>2017-06-08T15:33:41Z</time>
      </trkpt>
      <trkpt lat="50.29512" lon="5.10532">
        <ele>264.39826640895</ele>
        <time>2017-06-08T15:33:46Z</time>
      </trkpt>
      <trkpt lat="50.29503" lon="5.10546">
        <ele>263.85284743072</ele>
        <time>2017-06-08T15:33:48Z</time>
      </trkpt>
      <trkpt lat="50.29488" lon="5.10576">
        <ele>265.35983216032</ele>
        <time>2017-06-08T15:33:52Z</time>
      </trkpt>
      <trkpt lat="50.29469" lon="5.10613">
        <ele>269.11841895386</ele>
        <time>2017-06-08T15:33:57Z</time>
      </trkpt>
      <trkpt lat="50.29451" lon="5.10649">
        <ele>270.82960541288</ele>
        <time>2017-06-08T15:34:02Z</time>
      </trkpt>
      <trkpt lat="50.29437" lon="5.10677">
        <ele>271.83005042809</ele>
        <time>2017-06-08T15:34:06Z</time>
      </trkpt>
      <trkpt lat="50.29419" lon="5.10701">
        <ele>272.44532945475</ele>
        <time>2017-06-08T15:34:10Z</time>
      </trkpt>
      <trkpt lat="50.29388" lon="5.10707">
        <ele>273.47983127248</ele>
        <time>2017-06-08T15:34:15Z</time>
      </trkpt>
      <trkpt lat="50.29358" lon="5.10688">
        <ele>272.57970341818</ele>
        <time>2017-06-08T15:34:20Z</time>
      </trkpt>
      <trkpt lat="50.29335" lon="5.10705">
        <ele>272.82031301134</ele>
        <time>2017-06-08T15:34:24Z</time>
      </trkpt>
      <trkpt lat="50.29305" lon="5.10737">
        <ele>272.08991263696</ele>
        <time>2017-06-08T15:34:29Z</time>
      </trkpt>
      <trkpt lat="50.29278" lon="5.1076">
        <ele>270.35409538775</ele>
        <time>2017-06-08T15:34:33Z</time>
      </trkpt>
      <trkpt lat="50.29247" lon="5.10774">
        <ele>268.0231565778</ele>
        <time>2017-06-08T15:34:37Z</time>
      </trkpt>
      <trkpt lat="50.29217" lon="5.10786">
        <ele>265.62027411823</ele>
        <time>2017-06-08T15:34:41Z</time>
      </trkpt>
      <trkpt lat="50.29184" lon="5.10801">
        <ele>264.02222439851</ele>
        <time>2017-06-08T15:34:46Z</time>
      </trkpt>
      <trkpt lat="50.29155" lon="5.10812">
        <ele>263.66474084004</ele>
        <time>2017-06-08T15:34:51Z</time>
      </trkpt>
      <trkpt lat="50.29126" lon="5.10823">
        <ele>262.81596077565</ele>
        <time>2017-06-08T15:34:56Z</time>
      </trkpt>
      <trkpt lat="50.29095" lon="5.10837">
        <ele>262.17555906039</ele>
        <time>2017-06-08T15:35:01Z</time>
      </trkpt>
      <trkpt lat="50.29065" lon="5.1085">
        <ele>263.57588629027</ele>
        <time>2017-06-08T15:35:06Z</time>
      </trkpt>
      <trkpt lat="50.28987" lon="5.10902">
        <ele>269.43667959676</ele>
        <time>2017-06-08T15:35:22Z</time>
      </trkpt>
      <trkpt lat="50.28957" lon="5.10915">
        <ele>269.18620958263</ele>
        <time>2017-06-08T15:35:26Z</time>
      </trkpt>
      <trkpt lat="50.28933" lon="5.10926">
        <ele>268.07804964603</ele>
        <time>2017-06-08T15:35:31Z</time>
      </trkpt>
      <trkpt lat="50.28919" lon="5.10935">
        <ele>270.30043197519</ele>
        <time>2017-06-08T15:35:35Z</time>
      </trkpt>
      <trkpt lat="50.28906" lon="5.10949">
        <ele>274.31351506152</ele>
        <time>2017-06-08T15:35:40Z</time>
      </trkpt>
      <trkpt lat="50.28895" lon="5.10962">
        <ele>276.41323813709</ele>
        <time>2017-06-08T15:35:44Z</time>
      </trkpt>
      <trkpt lat="50.2888" lon="5.10979">
        <ele>277.03724654004</ele>
        <time>2017-06-08T15:35:49Z</time>
      </trkpt>
      <trkpt lat="50.28869" lon="5.10993">
        <ele>283.16406364676</ele>
        <time>2017-06-08T15:35:53Z</time>
      </trkpt>
      <trkpt lat="50.28855" lon="5.11009">
        <ele>286.84633803532</ele>
        <time>2017-06-08T15:35:57Z</time>
      </trkpt>
      <trkpt lat="50.28841" lon="5.11026">
        <ele>287.26763163201</ele>
        <time>2017-06-08T15:36:01Z</time>
      </trkpt>
      <trkpt lat="50.28823" lon="5.11046">
        <ele>288.17048280943</ele>
        <time>2017-06-08T15:36:06Z</time>
      </trkpt>
      <trkpt lat="50.28803" lon="5.11068">
        <ele>287.21856077054</ele>
        <time>2017-06-08T15:36:10Z</time>
      </trkpt>
      <trkpt lat="50.28772" lon="5.11094">
        <ele>284.85972108454</ele>
        <time>2017-06-08T15:36:15Z</time>
      </trkpt>
      <trkpt lat="50.28744" lon="5.11116">
        <ele>282.95706190954</ele>
        <time>2017-06-08T15:36:19Z</time>
      </trkpt>
      <trkpt lat="50.28709" lon="5.11138">
        <ele>280.22953206498</ele>
        <time>2017-06-08T15:36:23Z</time>
      </trkpt>
      <trkpt lat="50.28659" lon="5.11153">
        <ele>277.12287457492</ele>
        <time>2017-06-08T15:36:28Z</time>
      </trkpt>
      <trkpt lat="50.28614" lon="5.11158">
        <ele>275.24908697097</ele>
        <time>2017-06-08T15:36:33Z</time>
      </trkpt>
      <trkpt lat="50.28585" lon="5.11159">
        <ele>275.30033339993</ele>
        <time>2017-06-08T15:36:37Z</time>
      </trkpt>
      <trkpt lat="50.2856" lon="5.11167">
        <ele>276.87647413229</ele>
        <time>2017-06-08T15:36:41Z</time>
      </trkpt>
      <trkpt lat="50.28532" lon="5.11189">
        <ele>277.91849587492</ele>
        <time>2017-06-08T15:36:46Z</time>
      </trkpt>
      <trkpt lat="50.28508" lon="5.11206">
        <ele>277.90972737892</ele>
        <time>2017-06-08T15:36:50Z</time>
      </trkpt>
      <trkpt lat="50.28483" lon="5.11216">
        <ele>277.30993024549</ele>
        <time>2017-06-08T15:36:54Z</time>
      </trkpt>
      <trkpt lat="50.28458" lon="5.11226">
        <ele>275.6485038428</ele>
        <time>2017-06-08T15:36:58Z</time>
      </trkpt>
      <trkpt lat="50.2842" lon="5.11246">
        <ele>272.5865994197</ele>
        <time>2017-06-08T15:37:03Z</time>
      </trkpt>
      <trkpt lat="50.28385" lon="5.11247">
        <ele>272.78190705135</ele>
        <time>2017-06-08T15:37:07Z</time>
      </trkpt>
      <trkpt lat="50.28342" lon="5.11233">
        <ele>273.1315418424</ele>
        <time>2017-06-08T15:37:12Z</time>
      </trkpt>
      <trkpt lat="50.28293" lon="5.11233">
        <ele>269.64311375158</ele>
        <time>2017-06-08T15:37:17Z</time>
      </trkpt>
      <trkpt lat="50.28249" lon="5.1124">
        <ele>265.97007371348</ele>
        <time>2017-06-08T15:37:21Z</time>
      </trkpt>
      <trkpt lat="50.28201" lon="5.1122">
        <ele>262.37065600288</ele>
        <time>2017-06-08T15:37:26Z</time>
      </trkpt>
      <trkpt lat="50.28164" lon="5.112">
        <ele>260.58539176752</ele>
        <time>2017-06-08T15:37:31Z</time>
      </trkpt>
      <trkpt lat="50.28138" lon="5.1119">
        <ele>259.79579639493</ele>
        <time>2017-06-08T15:37:35Z</time>
      </trkpt>
      <trkpt lat="50.28104" lon="5.11182">
        <ele>258.54850373778</ele>
        <time>2017-06-08T15:37:40Z</time>
      </trkpt>
      <trkpt lat="50.28078" lon="5.11177">
        <ele>258.49927889842</ele>
        <time>2017-06-08T15:37:44Z</time>
      </trkpt>
      <trkpt lat="50.28052" lon="5.11171">
        <ele>259.67848649754</ele>
        <time>2017-06-08T15:37:48Z</time>
      </trkpt>
      <trkpt lat="50.28022" lon="5.11164">
        <ele>261.29324488631</ele>
        <time>2017-06-08T15:37:53Z</time>
      </trkpt>
      <trkpt lat="50.27998" lon="5.11158">
        <ele>262.50263892162</ele>
        <time>2017-06-08T15:37:57Z</time>
      </trkpt>
      <trkpt lat="50.27976" lon="5.11152">
        <ele>263.63125481986</ele>
        <time>2017-06-08T15:38:01Z</time>
      </trkpt>
      <trkpt lat="50.27954" lon="5.11148">
        <ele>264.80417174719</ele>
        <time>2017-06-08T15:38:05Z</time>
      </trkpt>
      <trkpt lat="50.27926" lon="5.11143">
        <ele>265.98271051597</ele>
        <time>2017-06-08T15:38:10Z</time>
      </trkpt>
      <trkpt lat="50.27904" lon="5.11142">
        <ele>266.7842384017</ele>
        <time>2017-06-08T15:38:14Z</time>
      </trkpt>
      <trkpt lat="50.2788" lon="5.11143">
        <ele>267.40407625448</ele>
        <time>2017-06-08T15:38:18Z</time>
      </trkpt>
      <trkpt lat="50.27855" lon="5.11144">
        <ele>267.85296631124</ele>
        <time>2017-06-08T15:38:22Z</time>
      </trkpt>
      <trkpt lat="50.27831" lon="5.11144">
        <ele>268.22893167226</ele>
        <time>2017-06-08T15:38:26Z</time>
      </trkpt>
      <trkpt lat="50.27807" lon="5.11144">
        <ele>268.29700040041</ele>
        <time>2017-06-08T15:38:30Z</time>
      </trkpt>
      <trkpt lat="50.27783" lon="5.11143">
        <ele>268.70724474481</ele>
        <time>2017-06-08T15:38:34Z</time>
      </trkpt>
      <trkpt lat="50.27761" lon="5.11143">
        <ele>269.69932736354</ele>
        <time>2017-06-08T15:38:38Z</time>
      </trkpt>
      <trkpt lat="50.27738" lon="5.11143">
        <ele>270.9458942946</ele>
        <time>2017-06-08T15:38:42Z</time>
      </trkpt>
      <trkpt lat="50.27716" lon="5.11143">
        <ele>272.27796743547</ele>
        <time>2017-06-08T15:38:46Z</time>
      </trkpt>
      <trkpt lat="50.27695" lon="5.11143">
        <ele>273.63963088247</ele>
        <time>2017-06-08T15:38:50Z</time>
      </trkpt>
      <trkpt lat="50.27668" lon="5.11142">
        <ele>275.60872679739</ele>
        <time>2017-06-08T15:38:55Z</time>
      </trkpt>
      <trkpt lat="50.27646" lon="5.11142">
        <ele>277.1813572581</ele>
        <time>2017-06-08T15:38:59Z</time>
      </trkpt>
      <trkpt lat="50.27619" lon="5.11142">
        <ele>278.35726141503</ele>
        <time>2017-06-08T15:39:04Z</time>
      </trkpt>
      <trkpt lat="50.27593" lon="5.11141">
        <ele>279.61065484583</ele>
        <time>2017-06-08T15:39:09Z</time>
      </trkpt>
      <trkpt lat="50.27567" lon="5.11141">
        <ele>280.79359280512</ele>
        <time>2017-06-08T15:39:14Z</time>
      </trkpt>
      <trkpt lat="50.27546" lon="5.11141">
        <ele>282.28276435655</ele>
        <time>2017-06-08T15:39:18Z</time>
      </trkpt>
      <trkpt lat="50.27521" lon="5.11141">
        <ele>284.71505915125</ele>
        <time>2017-06-08T15:39:23Z</time>
      </trkpt>
      <trkpt lat="50.27501" lon="5.11143">
        <ele>286.186978224</ele>
        <time>2017-06-08T15:39:27Z</time>
      </trkpt>
      <trkpt lat="50.27481" lon="5.11143">
        <ele>286.93110390869</ele>
        <time>2017-06-08T15:39:31Z</time>
      </trkpt>
      <trkpt lat="50.27459" lon="5.11143">
        <ele>287.18582339417</ele>
        <time>2017-06-08T15:39:35Z</time>
      </trkpt>
      <trkpt lat="50.2744" lon="5.11145">
        <ele>288.23352764839</ele>
        <time>2017-06-08T15:39:39Z</time>
      </trkpt>
      <trkpt lat="50.27412" lon="5.11146">
        <ele>289.05744031939</ele>
        <time>2017-06-08T15:39:44Z</time>
      </trkpt>
      <trkpt lat="50.27383" lon="5.11148">
        <ele>290.08036383356</ele>
        <time>2017-06-08T15:39:49Z</time>
      </trkpt>
      <trkpt lat="50.2737" lon="5.11152">
        <ele>290.22112402045</ele>
        <time>2017-06-08T15:39:53Z</time>
      </trkpt>
      <trkpt lat="50.27374" lon="5.11168">
        <ele>291.2756155563</ele>
        <time>2017-06-08T15:39:57Z</time>
      </trkpt>
      <trkpt lat="50.27389" lon="5.11195">
        <ele>295.19868636406</ele>
        <time>2017-06-08T15:40:02Z</time>
      </trkpt>
      <trkpt lat="50.27406" lon="5.11226">
        <ele>297.65437162183</ele>
        <time>2017-06-08T15:40:07Z</time>
      </trkpt>
      <trkpt lat="50.27424" lon="5.11259">
        <ele>298.2071888508</ele>
        <time>2017-06-08T15:40:12Z</time>
      </trkpt>
      <trkpt lat="50.27444" lon="5.11297">
        <ele>298.68905870385</ele>
        <time>2017-06-08T15:40:17Z</time>
      </trkpt>
      <trkpt lat="50.2746" lon="5.11325">
        <ele>300.56024554641</ele>
        <time>2017-06-08T15:40:21Z</time>
      </trkpt>
      <trkpt lat="50.27481" lon="5.11362">
        <ele>302.1642811847</ele>
        <time>2017-06-08T15:40:26Z</time>
      </trkpt>
      <trkpt lat="50.27499" lon="5.11398">
        <ele>300.95026658195</ele>
        <time>2017-06-08T15:40:31Z</time>
      </trkpt>
      <trkpt lat="50.27512" lon="5.11426">
        <ele>298.04939894539</ele>
        <time>2017-06-08T15:40:35Z</time>
      </trkpt>
      <trkpt lat="50.27531" lon="5.11465">
        <ele>295.04420447138</ele>
        <time>2017-06-08T15:40:40Z</time>
      </trkpt>
      <trkpt lat="50.27548" lon="5.11495">
        <ele>295.29154789578</ele>
        <time>2017-06-08T15:40:44Z</time>
      </trkpt>
      <trkpt lat="50.2757" lon="5.11532">
        <ele>295.6876106404</ele>
        <time>2017-06-08T15:40:49Z</time>
      </trkpt>
      <trkpt lat="50.27586" lon="5.11561">
        <ele>295.14222610054</ele>
        <time>2017-06-08T15:40:53Z</time>
      </trkpt>
      <trkpt lat="50.27604" lon="5.11595">
        <ele>298.50850640714</ele>
        <time>2017-06-08T15:40:58Z</time>
      </trkpt>
      <trkpt lat="50.27623" lon="5.11632">
        <ele>300.89223903071</ele>
        <time>2017-06-08T15:41:03Z</time>
      </trkpt>
      <trkpt lat="50.27638" lon="5.11662">
        <ele>301.72659140991</ele>
        <time>2017-06-08T15:41:07Z</time>
      </trkpt>
      <trkpt lat="50.2766" lon="5.11701">
        <ele>303.61263319508</ele>
        <time>2017-06-08T15:41:12Z</time>
      </trkpt>
      <trkpt lat="50.27677" lon="5.11735">
        <ele>305.21238725552</ele>
        <time>2017-06-08T15:41:16Z</time>
      </trkpt>
      <trkpt lat="50.27691" lon="5.11762">
        <ele>305.17524862067</ele>
        <time>2017-06-08T15:41:20Z</time>
      </trkpt>
      <trkpt lat="50.27711" lon="5.11799">
        <ele>306.65618454185</ele>
        <time>2017-06-08T15:41:25Z</time>
      </trkpt>
      <trkpt lat="50.27727" lon="5.11829">
        <ele>306.94504105755</ele>
        <time>2017-06-08T15:41:29Z</time>
      </trkpt>
      <trkpt lat="50.27748" lon="5.11867">
        <ele>307.3422604639</ele>
        <time>2017-06-08T15:41:34Z</time>
      </trkpt>
      <trkpt lat="50.27769" lon="5.11904">
        <ele>308.49195267408</ele>
        <time>2017-06-08T15:41:39Z</time>
      </trkpt>
      <trkpt lat="50.27789" lon="5.11935">
        <ele>308.50576084891</ele>
        <time>2017-06-08T15:41:43Z</time>
      </trkpt>
      <trkpt lat="50.27813" lon="5.11973">
        <ele>306.70607031683</ele>
        <time>2017-06-08T15:41:48Z</time>
      </trkpt>
      <trkpt lat="50.27836" lon="5.12007">
        <ele>305.86716880852</ele>
        <time>2017-06-08T15:41:52Z</time>
      </trkpt>
      <trkpt lat="50.27856" lon="5.12036">
        <ele>303.65097239388</ele>
        <time>2017-06-08T15:41:56Z</time>
      </trkpt>
      <trkpt lat="50.27876" lon="5.12064">
        <ele>302.23829053189</ele>
        <time>2017-06-08T15:42:00Z</time>
      </trkpt>
      <trkpt lat="50.27896" lon="5.12091">
        <ele>301.68081954419</ele>
        <time>2017-06-08T15:42:04Z</time>
      </trkpt>
      <trkpt lat="50.27915" lon="5.12118">
        <ele>301.68741638158</ele>
        <time>2017-06-08T15:42:08Z</time>
      </trkpt>
      <trkpt lat="50.27935" lon="5.12142">
        <ele>301.7800374415</ele>
        <time>2017-06-08T15:42:12Z</time>
      </trkpt>
      <trkpt lat="50.2794" lon="5.12165">
        <ele>302.26851236668</ele>
        <time>2017-06-08T15:42:16Z</time>
      </trkpt>
      <trkpt lat="50.27924" lon="5.12182">
        <ele>303.88444633556</ele>
        <time>2017-06-08T15:42:20Z</time>
      </trkpt>
      <trkpt lat="50.27904" lon="5.12201">
        <ele>303.74412131723</ele>
        <time>2017-06-08T15:42:24Z</time>
      </trkpt>
      <trkpt lat="50.27877" lon="5.12227">
        <ele>301.48118228621</ele>
        <time>2017-06-08T15:42:29Z</time>
      </trkpt>
      <trkpt lat="50.27854" lon="5.12244">
        <ele>299.76925587774</ele>
        <time>2017-06-08T15:42:33Z</time>
      </trkpt>
      <trkpt lat="50.27825" lon="5.1226">
        <ele>298.43814236889</ele>
        <time>2017-06-08T15:42:38Z</time>
      </trkpt>
      <trkpt lat="50.27799" lon="5.12276">
        <ele>297.26680118248</ele>
        <time>2017-06-08T15:42:43Z</time>
      </trkpt>
      <trkpt lat="50.27779" lon="5.12292">
        <ele>295.75220778339</ele>
        <time>2017-06-08T15:42:47Z</time>
      </trkpt>
      <trkpt lat="50.2776" lon="5.12309">
        <ele>294.51292053838</ele>
        <time>2017-06-08T15:42:51Z</time>
      </trkpt>
      <trkpt lat="50.27741" lon="5.12323">
        <ele>294.3180240528</ele>
        <time>2017-06-08T15:42:55Z</time>
      </trkpt>
      <trkpt lat="50.27725" lon="5.12334">
        <ele>295.13596899455</ele>
        <time>2017-06-08T15:42:59Z</time>
      </trkpt>
      <trkpt lat="50.27707" lon="5.12365">
        <ele>296.91118312614</ele>
        <time>2017-06-08T15:43:04Z</time>
      </trkpt>
      <trkpt lat="50.27694" lon="5.12397">
        <ele>296.79200647526</ele>
        <time>2017-06-08T15:43:08Z</time>
      </trkpt>
      <trkpt lat="50.27681" lon="5.12428">
        <ele>297.07860409836</ele>
        <time>2017-06-08T15:43:12Z</time>
      </trkpt>
      <trkpt lat="50.27663" lon="5.12465">
        <ele>296.18569469399</ele>
        <time>2017-06-08T15:43:17Z</time>
      </trkpt>
      <trkpt lat="50.27659" lon="5.12507">
        <ele>294.99074470879</ele>
        <time>2017-06-08T15:43:22Z</time>
      </trkpt>
      <trkpt lat="50.27657" lon="5.12547">
        <ele>293.49304077904</ele>
        <time>2017-06-08T15:43:26Z</time>
      </trkpt>
      <trkpt lat="50.27646" lon="5.12599">
        <ele>291.07783642469</ele>
        <time>2017-06-08T15:43:31Z</time>
      </trkpt>
      <trkpt lat="50.27637" lon="5.12633">
        <ele>289.94669863172</ele>
        <time>2017-06-08T15:43:35Z</time>
      </trkpt>
      <trkpt lat="50.27632" lon="5.1266">
        <ele>288.49891524099</ele>
        <time>2017-06-08T15:43:39Z</time>
      </trkpt>
      <trkpt lat="50.27628" lon="5.12708">
        <ele>286.37490293304</ele>
        <time>2017-06-08T15:43:44Z</time>
      </trkpt>
      <trkpt lat="50.27625" lon="5.1275">
        <ele>284.62771508238</ele>
        <time>2017-06-08T15:43:48Z</time>
      </trkpt>
      <trkpt lat="50.27619" lon="5.12796">
        <ele>282.98560468466</ele>
        <time>2017-06-08T15:43:53Z</time>
      </trkpt>
      <trkpt lat="50.27614" lon="5.12838">
        <ele>281.85937043772</ele>
        <time>2017-06-08T15:43:58Z</time>
      </trkpt>
      <trkpt lat="50.27615" lon="5.12879">
        <ele>281.83328249305</ele>
        <time>2017-06-08T15:44:03Z</time>
      </trkpt>
      <trkpt lat="50.27619" lon="5.12921">
        <ele>279.97256875661</ele>
        <time>2017-06-08T15:44:07Z</time>
      </trkpt>
      <trkpt lat="50.27627" lon="5.12966">
        <ele>276.72572354103</ele>
        <time>2017-06-08T15:44:12Z</time>
      </trkpt>
      <trkpt lat="50.27636" lon="5.13004">
        <ele>277.3185746868</ele>
        <time>2017-06-08T15:44:16Z</time>
      </trkpt>
      <trkpt lat="50.27651" lon="5.13043">
        <ele>277.7168587307</ele>
        <time>2017-06-08T15:44:21Z</time>
      </trkpt>
      <trkpt lat="50.2767" lon="5.13081">
        <ele>276.9655632218</ele>
        <time>2017-06-08T15:44:26Z</time>
      </trkpt>
      <trkpt lat="50.27686" lon="5.13107">
        <ele>277.21880553697</ele>
        <time>2017-06-08T15:44:30Z</time>
      </trkpt>
      <trkpt lat="50.27681" lon="5.1313">
        <ele>275.92022783401</ele>
        <time>2017-06-08T15:44:34Z</time>
      </trkpt>
      <trkpt lat="50.27661" lon="5.1316">
        <ele>271.5697400584</ele>
        <time>2017-06-08T15:44:38Z</time>
      </trkpt>
      <trkpt lat="50.27637" lon="5.13193">
        <ele>268.13833818172</ele>
        <time>2017-06-08T15:44:42Z</time>
      </trkpt>
      <trkpt lat="50.27609" lon="5.13225">
        <ele>266.18003067943</ele>
        <time>2017-06-08T15:44:47Z</time>
      </trkpt>
      <trkpt lat="50.2759" lon="5.13248">
        <ele>265.13365170742</ele>
        <time>2017-06-08T15:44:51Z</time>
      </trkpt>
      <trkpt lat="50.27574" lon="5.13277">
        <ele>264.8730472071</ele>
        <time>2017-06-08T15:44:55Z</time>
      </trkpt>
      <trkpt lat="50.27566" lon="5.13308">
        <ele>265.97439135044</ele>
        <time>2017-06-08T15:44:59Z</time>
      </trkpt>
      <trkpt lat="50.27564" lon="5.13339">
        <ele>268.94496886418</ele>
        <time>2017-06-08T15:45:03Z</time>
      </trkpt>
      <trkpt lat="50.27569" lon="5.13372">
        <ele>273.64067920091</ele>
        <time>2017-06-08T15:45:08Z</time>
      </trkpt>
      <trkpt lat="50.27574" lon="5.13397">
        <ele>274.0179727487</ele>
        <time>2017-06-08T15:45:12Z</time>
      </trkpt>
      <trkpt lat="50.2758" lon="5.13426">
        <ele>273.98249937678</ele>
        <time>2017-06-08T15:45:17Z</time>
      </trkpt>
      <trkpt lat="50.27585" lon="5.13451">
        <ele>274.55834296179</ele>
        <time>2017-06-08T15:45:21Z</time>
      </trkpt>
      <trkpt lat="50.27592" lon="5.13478">
        <ele>276.86974007536</ele>
        <time>2017-06-08T15:45:26Z</time>
      </trkpt>
      <trkpt lat="50.27598" lon="5.13505">
        <ele>279.65104147067</ele>
        <time>2017-06-08T15:45:30Z</time>
      </trkpt>
      <trkpt lat="50.27603" lon="5.1354">
        <ele>281.89086534775</ele>
        <time>2017-06-08T15:45:35Z</time>
      </trkpt>
      <trkpt lat="50.27605" lon="5.13567">
        <ele>282.73445454906</ele>
        <time>2017-06-08T15:45:39Z</time>
      </trkpt>
      <trkpt lat="50.27605" lon="5.13597">
        <ele>283.16469661846</ele>
        <time>2017-06-08T15:45:43Z</time>
      </trkpt>
      <trkpt lat="50.27596" lon="5.13629">
        <ele>285.751960468</ele>
        <time>2017-06-08T15:45:48Z</time>
      </trkpt>
      <trkpt lat="50.27583" lon="5.1365">
        <ele>287.88848472673</ele>
        <time>2017-06-08T15:45:52Z</time>
      </trkpt>
      <trkpt lat="50.27568" lon="5.13667">
        <ele>290.13986529607</ele>
        <time>2017-06-08T15:45:56Z</time>
      </trkpt>
      <trkpt lat="50.27551" lon="5.13685">
        <ele>291.43061330013</ele>
        <time>2017-06-08T15:46:01Z</time>
      </trkpt>
      <trkpt lat="50.27537" lon="5.13698">
        <ele>291.27656462827</ele>
        <time>2017-06-08T15:46:05Z</time>
      </trkpt>
      <trkpt lat="50.27523" lon="5.13712">
        <ele>292.00283638317</ele>
        <time>2017-06-08T15:46:09Z</time>
      </trkpt>
      <trkpt lat="50.27505" lon="5.13731">
        <ele>293.04517205618</ele>
        <time>2017-06-08T15:46:14Z</time>
      </trkpt>
      <trkpt lat="50.27489" lon="5.13757">
        <ele>294.40831480539</ele>
        <time>2017-06-08T15:46:19Z</time>
      </trkpt>
      <trkpt lat="50.27475" lon="5.13783">
        <ele>294.79900806889</ele>
        <time>2017-06-08T15:46:23Z</time>
      </trkpt>
      <trkpt lat="50.2746" lon="5.13818">
        <ele>294.27647235726</ele>
        <time>2017-06-08T15:46:28Z</time>
      </trkpt>
      <trkpt lat="50.27447" lon="5.13845">
        <ele>294.53412772263</ele>
        <time>2017-06-08T15:46:32Z</time>
      </trkpt>
      <trkpt lat="50.27431" lon="5.13878">
        <ele>295.26928206538</ele>
        <time>2017-06-08T15:46:37Z</time>
      </trkpt>
      <trkpt lat="50.27417" lon="5.13904">
        <ele>295.97985031027</ele>
        <time>2017-06-08T15:46:41Z</time>
      </trkpt>
      <trkpt lat="50.27403" lon="5.13928">
        <ele>296.45707740844</ele>
        <time>2017-06-08T15:46:45Z</time>
      </trkpt>
      <trkpt lat="50.27389" lon="5.13952">
        <ele>297.10150836979</ele>
        <time>2017-06-08T15:46:49Z</time>
      </trkpt>
      <trkpt lat="50.27373" lon="5.1398">
        <ele>298.29279302574</ele>
        <time>2017-06-08T15:46:54Z</time>
      </trkpt>
      <trkpt lat="50.27363" lon="5.14003">
        <ele>299.34442690366</ele>
        <time>2017-06-08T15:46:58Z</time>
      </trkpt>
      <trkpt lat="50.27352" lon="5.14029">
        <ele>300.22276463835</ele>
        <time>2017-06-08T15:47:03Z</time>
      </trkpt>
      <trkpt lat="50.27342" lon="5.14052">
        <ele>300.71641806574</ele>
        <time>2017-06-08T15:47:08Z</time>
      </trkpt>
      <trkpt lat="50.27335" lon="5.14071">
        <ele>300.91079511353</ele>
        <time>2017-06-08T15:47:12Z</time>
      </trkpt>
      <trkpt lat="50.27327" lon="5.1409">
        <ele>301.98096125455</ele>
        <time>2017-06-08T15:47:16Z</time>
      </trkpt>
      <trkpt lat="50.2732" lon="5.14107">
        <ele>302.33027740807</ele>
        <time>2017-06-08T15:47:20Z</time>
      </trkpt>
      <trkpt lat="50.27312" lon="5.14123">
        <ele>302.78269912401</ele>
        <time>2017-06-08T15:47:24Z</time>
      </trkpt>
      <trkpt lat="50.27303" lon="5.14142">
        <ele>303.55891208671</ele>
        <time>2017-06-08T15:47:29Z</time>
      </trkpt>
      <trkpt lat="50.27291" lon="5.1416">
        <ele>304.41975091226</ele>
        <time>2017-06-08T15:47:34Z</time>
      </trkpt>
      <trkpt lat="50.27283" lon="5.14177">
        <ele>305.12593915806</ele>
        <time>2017-06-08T15:47:38Z</time>
      </trkpt>
      <trkpt lat="50.27275" lon="5.14194">
        <ele>305.8903013433</ele>
        <time>2017-06-08T15:47:42Z</time>
      </trkpt>
      <trkpt lat="50.27266" lon="5.14212">
        <ele>309.05748510424</ele>
        <time>2017-06-08T15:47:46Z</time>
      </trkpt>
      <trkpt lat="50.27258" lon="5.14234">
        <ele>315.78086573274</ele>
        <time>2017-06-08T15:47:50Z</time>
      </trkpt>
      <trkpt lat="50.27249" lon="5.14259">
        <ele>317.54936991167</ele>
        <time>2017-06-08T15:47:55Z</time>
      </trkpt>
      <trkpt lat="50.27243" lon="5.14278">
        <ele>317.65423008695</ele>
        <time>2017-06-08T15:47:59Z</time>
      </trkpt>
      <trkpt lat="50.27246" lon="5.14304">
        <ele>318.87965910715</ele>
        <time>2017-06-08T15:48:03Z</time>
      </trkpt>
      <trkpt lat="50.27256" lon="5.14333">
        <ele>320.41421273305</ele>
        <time>2017-06-08T15:48:07Z</time>
      </trkpt>
      <trkpt lat="50.27264" lon="5.14364">
        <ele>321.26634144347</ele>
        <time>2017-06-08T15:48:11Z</time>
      </trkpt>
      <trkpt lat="50.27272" lon="5.14409">
        <ele>322.62045815706</ele>
        <time>2017-06-08T15:48:16Z</time>
      </trkpt>
      <trkpt lat="50.27278" lon="5.14446">
        <ele>323.0728845796</ele>
        <time>2017-06-08T15:48:20Z</time>
      </trkpt>
      <trkpt lat="50.27286" lon="5.14494">
        <ele>323.37310863602</ele>
        <time>2017-06-08T15:48:25Z</time>
      </trkpt>
      <trkpt lat="50.27278" lon="5.14523">
        <ele>322.98654436939</ele>
        <time>2017-06-08T15:48:29Z</time>
      </trkpt>
      <trkpt lat="50.27251" lon="5.14554">
        <ele>320.86290863523</ele>
        <time>2017-06-08T15:48:34Z</time>
      </trkpt>
      <trkpt lat="50.27223" lon="5.14582">
        <ele>318.0734269688</ele>
        <time>2017-06-08T15:48:38Z</time>
      </trkpt>
      <trkpt lat="50.27192" lon="5.14612">
        <ele>314.85851009156</ele>
        <time>2017-06-08T15:48:42Z</time>
      </trkpt>
      <trkpt lat="50.27149" lon="5.14654">
        <ele>311.14892149925</ele>
        <time>2017-06-08T15:48:47Z</time>
      </trkpt>
      <trkpt lat="50.27107" lon="5.14691">
        <ele>308.5916422965</ele>
        <time>2017-06-08T15:48:52Z</time>
      </trkpt>
      <trkpt lat="50.27081" lon="5.14708">
        <ele>308.6407684679</ele>
        <time>2017-06-08T15:48:56Z</time>
      </trkpt>
      <trkpt lat="50.2706" lon="5.14722">
        <ele>309.68644804176</ele>
        <time>2017-06-08T15:49:00Z</time>
      </trkpt>
      <trkpt lat="50.27043" lon="5.14733">
        <ele>311.45547547481</ele>
        <time>2017-06-08T15:49:04Z</time>
      </trkpt>
      <trkpt lat="50.27022" lon="5.14747">
        <ele>313.13059961621</ele>
        <time>2017-06-08T15:49:09Z</time>
      </trkpt>
      <trkpt lat="50.27002" lon="5.14762">
        <ele>315.24390388461</ele>
        <time>2017-06-08T15:49:14Z</time>
      </trkpt>
      <trkpt lat="50.26986" lon="5.14774">
        <ele>316.58696153983</ele>
        <time>2017-06-08T15:49:18Z</time>
      </trkpt>
      <trkpt lat="50.26966" lon="5.14789">
        <ele>318.73802840401</ele>
        <time>2017-06-08T15:49:23Z</time>
      </trkpt>
      <trkpt lat="50.26949" lon="5.148">
        <ele>320.05354016816</ele>
        <time>2017-06-08T15:49:27Z</time>
      </trkpt>
      <trkpt lat="50.26928" lon="5.14812">
        <ele>321.92446305675</ele>
        <time>2017-06-08T15:49:32Z</time>
      </trkpt>
      <trkpt lat="50.26908" lon="5.14823">
        <ele>322.93682905679</ele>
        <time>2017-06-08T15:49:36Z</time>
      </trkpt>
      <trkpt lat="50.26882" lon="5.14817">
        <ele>322.72377128882</ele>
        <time>2017-06-08T15:49:41Z</time>
      </trkpt>
      <trkpt lat="50.26869" lon="5.14788">
        <ele>321.90024604765</ele>
        <time>2017-06-08T15:49:45Z</time>
      </trkpt>
      <trkpt lat="50.26856" lon="5.14753">
        <ele>321.24028698426</ele>
        <time>2017-06-08T15:49:49Z</time>
      </trkpt>
      <trkpt lat="50.26843" lon="5.14717">
        <ele>320.65025526751</ele>
        <time>2017-06-08T15:49:53Z</time>
      </trkpt>
      <trkpt lat="50.26829" lon="5.14681">
        <ele>320.86336063944</ele>
        <time>2017-06-08T15:49:57Z</time>
      </trkpt>
      <trkpt lat="50.26814" lon="5.14638">
        <ele>321.14765330749</ele>
        <time>2017-06-08T15:50:02Z</time>
      </trkpt>
      <trkpt lat="50.26803" lon="5.14606">
        <ele>321.75240077141</ele>
        <time>2017-06-08T15:50:06Z</time>
      </trkpt>
      <trkpt lat="50.26787" lon="5.14566">
        <ele>322.60201318721</ele>
        <time>2017-06-08T15:50:11Z</time>
      </trkpt>
      <trkpt lat="50.26772" lon="5.14523">
        <ele>323.95023239113</ele>
        <time>2017-06-08T15:50:16Z</time>
      </trkpt>
      <trkpt lat="50.26761" lon="5.14494">
        <ele>325.75607663549</ele>
        <time>2017-06-08T15:50:20Z</time>
      </trkpt>
      <trkpt lat="50.26746" lon="5.14453">
        <ele>326.77756084509</ele>
        <time>2017-06-08T15:50:25Z</time>
      </trkpt>
      <trkpt lat="50.26728" lon="5.14409">
        <ele>327.11336264747</ele>
        <time>2017-06-08T15:50:30Z</time>
      </trkpt>
      <trkpt lat="50.26714" lon="5.14374">
        <ele>326.3423949518</ele>
        <time>2017-06-08T15:50:34Z</time>
      </trkpt>
      <trkpt lat="50.267" lon="5.1434">
        <ele>325.49136821925</ele>
        <time>2017-06-08T15:50:38Z</time>
      </trkpt>
      <trkpt lat="50.26683" lon="5.14299">
        <ele>324.58693177797</ele>
        <time>2017-06-08T15:50:43Z</time>
      </trkpt>
      <trkpt lat="50.26671" lon="5.1427">
        <ele>323.48145137927</ele>
        <time>2017-06-08T15:50:47Z</time>
      </trkpt>
      <trkpt lat="50.2666" lon="5.14244">
        <ele>323.29484255248</ele>
        <time>2017-06-08T15:50:51Z</time>
      </trkpt>
      <trkpt lat="50.26643" lon="5.14204">
        <ele>321.30262523993</ele>
        <time>2017-06-08T15:50:56Z</time>
      </trkpt>
      <trkpt lat="50.26625" lon="5.14162">
        <ele>320.63824829932</ele>
        <time>2017-06-08T15:51:01Z</time>
      </trkpt>
      <trkpt lat="50.26606" lon="5.14118">
        <ele>319.82678988955</ele>
        <time>2017-06-08T15:51:06Z</time>
      </trkpt>
      <trkpt lat="50.26591" lon="5.14084">
        <ele>320.55298007755</ele>
        <time>2017-06-08T15:51:10Z</time>
      </trkpt>
      <trkpt lat="50.26576" lon="5.14049">
        <ele>320.05776197566</ele>
        <time>2017-06-08T15:51:14Z</time>
      </trkpt>
      <trkpt lat="50.26562" lon="5.14017">
        <ele>319.61519013168</ele>
        <time>2017-06-08T15:51:18Z</time>
      </trkpt>
      <trkpt lat="50.26548" lon="5.13986">
        <ele>319.55410222917</ele>
        <time>2017-06-08T15:51:22Z</time>
      </trkpt>
      <trkpt lat="50.26529" lon="5.13943">
        <ele>318.21611025395</ele>
        <time>2017-06-08T15:51:27Z</time>
      </trkpt>
      <trkpt lat="50.26511" lon="5.13904">
        <ele>316.58953281948</ele>
        <time>2017-06-08T15:51:31Z</time>
      </trkpt>
      <trkpt lat="50.26496" lon="5.13869">
        <ele>315.74390800717</ele>
        <time>2017-06-08T15:51:35Z</time>
      </trkpt>
      <trkpt lat="50.26479" lon="5.13828">
        <ele>313.34858406399</ele>
        <time>2017-06-08T15:51:40Z</time>
      </trkpt>
      <trkpt lat="50.26463" lon="5.13791">
        <ele>312.74872080119</ele>
        <time>2017-06-08T15:51:44Z</time>
      </trkpt>
      <trkpt lat="50.26444" lon="5.13747">
        <ele>312.10534667713</ele>
        <time>2017-06-08T15:51:49Z</time>
      </trkpt>
      <trkpt lat="50.26423" lon="5.13697">
        <ele>310.08069740192</ele>
        <time>2017-06-08T15:51:54Z</time>
      </trkpt>
      <trkpt lat="50.26405" lon="5.13658">
        <ele>308.69545966556</ele>
        <time>2017-06-08T15:51:58Z</time>
      </trkpt>
      <trkpt lat="50.26391" lon="5.13622">
        <ele>308.22604650817</ele>
        <time>2017-06-08T15:52:02Z</time>
      </trkpt>
      <trkpt lat="50.26377" lon="5.13586">
        <ele>307.92309574166</ele>
        <time>2017-06-08T15:52:06Z</time>
      </trkpt>
      <trkpt lat="50.26358" lon="5.13541">
        <ele>306.57421452946</ele>
        <time>2017-06-08T15:52:11Z</time>
      </trkpt>
      <trkpt lat="50.26336" lon="5.135">
        <ele>305.98522868959</ele>
        <time>2017-06-08T15:52:16Z</time>
      </trkpt>
      <trkpt lat="50.26312" lon="5.13463">
        <ele>304.14577482803</ele>
        <time>2017-06-08T15:52:21Z</time>
      </trkpt>
      <trkpt lat="50.26292" lon="5.13438">
        <ele>303.24025852362</ele>
        <time>2017-06-08T15:52:26Z</time>
      </trkpt>
      <trkpt lat="50.26268" lon="5.13406">
        <ele>301.49896935784</ele>
        <time>2017-06-08T15:52:30Z</time>
      </trkpt>
      <trkpt lat="50.26247" lon="5.13377">
        <ele>300.23257696402</ele>
        <time>2017-06-08T15:52:34Z</time>
      </trkpt>
      <trkpt lat="50.26222" lon="5.13343">
        <ele>299.45435988772</ele>
        <time>2017-06-08T15:52:39Z</time>
      </trkpt>
      <trkpt lat="50.26195" lon="5.13305">
        <ele>297.9576795136</ele>
        <time>2017-06-08T15:52:44Z</time>
      </trkpt>
      <trkpt lat="50.2619" lon="5.13298">
        <ele>297.50131090417</ele>
        <time>2017-06-08T15:52:45Z</time>
      </trkpt>
      <trkpt lat="50.2616" lon="5.13259">
        <ele>295.20506466386</ele>
        <time>2017-06-08T15:52:50Z</time>
      </trkpt>
      <trkpt lat="50.26143" lon="5.13226">
        <ele>293.77191069232</ele>
        <time>2017-06-08T15:52:54Z</time>
      </trkpt>
      <trkpt lat="50.26131" lon="5.13175">
        <ele>289.31420531161</ele>
        <time>2017-06-08T15:52:59Z</time>
      </trkpt>
      <trkpt lat="50.26112" lon="5.13153">
        <ele>287.79438242273</ele>
        <time>2017-06-08T15:53:04Z</time>
      </trkpt>
      <trkpt lat="50.26106" lon="5.13157">
        <ele>287.49359855746</ele>
        <time>2017-06-08T15:53:05Z</time>
      </trkpt>
      <trkpt lat="50.26065" lon="5.13327">
        <ele>277.08979072787</ele>
        <time>2017-06-08T15:53:26Z</time>
      </trkpt>
      <trkpt lat="50.2605" lon="5.13378">
        <ele>276.62572349616</ele>
        <time>2017-06-08T15:53:30Z</time>
      </trkpt>
      <trkpt lat="50.26047" lon="5.13399">
        <ele>277.61845922467</ele>
        <time>2017-06-08T15:53:32Z</time>
      </trkpt>
      <trkpt lat="50.2599" lon="5.13584">
        <ele>271.66286366985</ele>
        <time>2017-06-08T15:53:58Z</time>
      </trkpt>
      <trkpt lat="50.25966" lon="5.13619">
        <ele>273.1215210507</ele>
        <time>2017-06-08T15:54:02Z</time>
      </trkpt>
      <trkpt lat="50.25942" lon="5.13652">
        <ele>272.92317059248</ele>
        <time>2017-06-08T15:54:07Z</time>
      </trkpt>
      <trkpt lat="50.25919" lon="5.13671">
        <ele>273.25259463872</ele>
        <time>2017-06-08T15:54:11Z</time>
      </trkpt>
      <trkpt lat="50.25885" lon="5.13677">
        <ele>272.7876086234</ele>
        <time>2017-06-08T15:54:16Z</time>
      </trkpt>
      <trkpt lat="50.25853" lon="5.13677">
        <ele>269.77419477681</ele>
        <time>2017-06-08T15:54:21Z</time>
      </trkpt>
      <trkpt lat="50.25823" lon="5.13676">
        <ele>269.39641618269</ele>
        <time>2017-06-08T15:54:26Z</time>
      </trkpt>
      <trkpt lat="50.25799" lon="5.13674">
        <ele>269.78062140314</ele>
        <time>2017-06-08T15:54:30Z</time>
      </trkpt>
      <trkpt lat="50.25788" lon="5.13661">
        <ele>270.71487365459</ele>
        <time>2017-06-08T15:54:34Z</time>
      </trkpt>
      <trkpt lat="50.25784" lon="5.13645">
        <ele>272.08182740012</ele>
        <time>2017-06-08T15:54:38Z</time>
      </trkpt>
      <trkpt lat="50.25776" lon="5.1362">
        <ele>275.11244165172</ele>
        <time>2017-06-08T15:54:42Z</time>
      </trkpt>
      <trkpt lat="50.25769" lon="5.13595">
        <ele>275.43994536663</ele>
        <time>2017-06-08T15:54:47Z</time>
      </trkpt>
      <trkpt lat="50.25764" lon="5.13577">
        <ele>277.31325073485</ele>
        <time>2017-06-08T15:54:51Z</time>
      </trkpt>
      <trkpt lat="50.25756" lon="5.13553">
        <ele>278.09263103875</ele>
        <time>2017-06-08T15:54:56Z</time>
      </trkpt>
      <trkpt lat="50.25746" lon="5.13535">
        <ele>279.73555943832</ele>
        <time>2017-06-08T15:55:00Z</time>
      </trkpt>
      <trkpt lat="50.25736" lon="5.13516">
        <ele>281.51290130279</ele>
        <time>2017-06-08T15:55:04Z</time>
      </trkpt>
      <trkpt lat="50.25723" lon="5.13495">
        <ele>283.93117616677</ele>
        <time>2017-06-08T15:55:09Z</time>
      </trkpt>
      <trkpt lat="50.25714" lon="5.13479">
        <ele>284.21166038762</ele>
        <time>2017-06-08T15:55:13Z</time>
      </trkpt>
      <trkpt lat="50.25706" lon="5.13466">
        <ele>284.77692507186</ele>
        <time>2017-06-08T15:55:17Z</time>
      </trkpt>
      <trkpt lat="50.25695" lon="5.1345">
        <ele>285.69902076462</ele>
        <time>2017-06-08T15:55:22Z</time>
      </trkpt>
      <trkpt lat="50.25686" lon="5.13438">
        <ele>286.65449966839</ele>
        <time>2017-06-08T15:55:26Z</time>
      </trkpt>
      <trkpt lat="50.25676" lon="5.13424">
        <ele>287.62046703933</ele>
        <time>2017-06-08T15:55:30Z</time>
      </trkpt>
      <trkpt lat="50.25665" lon="5.13409">
        <ele>288.56674587456</ele>
        <time>2017-06-08T15:55:34Z</time>
      </trkpt>
      <trkpt lat="50.25654" lon="5.13394">
        <ele>289.53633282275</ele>
        <time>2017-06-08T15:55:38Z</time>
      </trkpt>
      <trkpt lat="50.2564" lon="5.13373">
        <ele>293.24387208939</ele>
        <time>2017-06-08T15:55:43Z</time>
      </trkpt>
      <trkpt lat="50.25626" lon="5.13356">
        <ele>295.83465866253</ele>
        <time>2017-06-08T15:55:47Z</time>
      </trkpt>
      <trkpt lat="50.25611" lon="5.13337">
        <ele>297.94268897467</ele>
        <time>2017-06-08T15:55:52Z</time>
      </trkpt>
      <trkpt lat="50.25597" lon="5.1332">
        <ele>299.97176541183</ele>
        <time>2017-06-08T15:55:56Z</time>
      </trkpt>
      <trkpt lat="50.25583" lon="5.13304">
        <ele>301.81999807332</ele>
        <time>2017-06-08T15:56:00Z</time>
      </trkpt>
      <trkpt lat="50.25565" lon="5.13284">
        <ele>304.10119552975</ele>
        <time>2017-06-08T15:56:05Z</time>
      </trkpt>
      <trkpt lat="50.2555" lon="5.13269">
        <ele>305.62680552176</ele>
        <time>2017-06-08T15:56:09Z</time>
      </trkpt>
      <trkpt lat="50.25534" lon="5.13254">
        <ele>307.1596393291</ele>
        <time>2017-06-08T15:56:13Z</time>
      </trkpt>
      <trkpt lat="50.25515" lon="5.13235">
        <ele>308.9604238235</ele>
        <time>2017-06-08T15:56:18Z</time>
      </trkpt>
      <trkpt lat="50.25497" lon="5.13218">
        <ele>308.22568469113</ele>
        <time>2017-06-08T15:56:22Z</time>
      </trkpt>
      <trkpt lat="50.25479" lon="5.13197">
        <ele>307.75352973169</ele>
        <time>2017-06-08T15:56:26Z</time>
      </trkpt>
      <trkpt lat="50.25462" lon="5.13171">
        <ele>306.99175292072</ele>
        <time>2017-06-08T15:56:30Z</time>
      </trkpt>
      <trkpt lat="50.25445" lon="5.13137">
        <ele>306.92424811986</ele>
        <time>2017-06-08T15:56:35Z</time>
      </trkpt>
      <trkpt lat="50.25432" lon="5.13107">
        <ele>307.37506256478</ele>
        <time>2017-06-08T15:56:39Z</time>
      </trkpt>
      <trkpt lat="50.25417" lon="5.13073">
        <ele>307.9987151356</ele>
        <time>2017-06-08T15:56:43Z</time>
      </trkpt>
      <trkpt lat="50.25398" lon="5.13025">
        <ele>307.86114569547</ele>
        <time>2017-06-08T15:56:48Z</time>
      </trkpt>
      <trkpt lat="50.25383" lon="5.1299">
        <ele>308.72379240769</ele>
        <time>2017-06-08T15:56:52Z</time>
      </trkpt>
      <trkpt lat="50.2537" lon="5.12952">
        <ele>308.55523043814</ele>
        <time>2017-06-08T15:56:56Z</time>
      </trkpt>
      <trkpt lat="50.25352" lon="5.12895">
        <ele>306.44021886474</ele>
        <time>2017-06-08T15:57:01Z</time>
      </trkpt>
      <trkpt lat="50.25338" lon="5.12847">
        <ele>304.39752424239</ele>
        <time>2017-06-08T15:57:05Z</time>
      </trkpt>
      <trkpt lat="50.25327" lon="5.1281">
        <ele>303.82691621108</ele>
        <time>2017-06-08T15:57:09Z</time>
      </trkpt>
      <trkpt lat="50.25318" lon="5.12778">
        <ele>304.30589441042</ele>
        <time>2017-06-08T15:57:13Z</time>
      </trkpt>
      <trkpt lat="50.25299" lon="5.12737">
        <ele>304.70929123359</ele>
        <time>2017-06-08T15:57:18Z</time>
      </trkpt>
      <trkpt lat="50.2528" lon="5.12712">
        <ele>304.96384298215</ele>
        <time>2017-06-08T15:57:22Z</time>
      </trkpt>
      <trkpt lat="50.2526" lon="5.1269">
        <ele>304.65236615928</ele>
        <time>2017-06-08T15:57:27Z</time>
      </trkpt>
      <trkpt lat="50.2524" lon="5.1267">
        <ele>304.65303978102</ele>
        <time>2017-06-08T15:57:31Z</time>
      </trkpt>
      <trkpt lat="50.2522" lon="5.12652">
        <ele>304.81016906069</ele>
        <time>2017-06-08T15:57:35Z</time>
      </trkpt>
      <trkpt lat="50.25209" lon="5.12644">
        <ele>305.12793836833</ele>
        <time>2017-06-08T15:57:37Z</time>
      </trkpt>
      <trkpt lat="50.25189" lon="5.12627">
        <ele>306.0702526533</ele>
        <time>2017-06-08T15:57:41Z</time>
      </trkpt>
      <trkpt lat="50.25166" lon="5.126">
        <ele>306.29614106392</ele>
        <time>2017-06-08T15:57:46Z</time>
      </trkpt>
      <trkpt lat="50.25149" lon="5.12571">
        <ele>306.32828043048</ele>
        <time>2017-06-08T15:57:50Z</time>
      </trkpt>
      <trkpt lat="50.25129" lon="5.12536">
        <ele>306.69648912913</ele>
        <time>2017-06-08T15:57:55Z</time>
      </trkpt>
      <trkpt lat="50.25125" lon="5.12529">
        <ele>306.86602685236</ele>
        <time>2017-06-08T15:57:56Z</time>
      </trkpt>
      <trkpt lat="50.25109" lon="5.12502">
        <ele>307.23500987212</ele>
        <time>2017-06-08T15:58:01Z</time>
      </trkpt>
      <trkpt lat="50.25093" lon="5.12475">
        <ele>308.00488156312</ele>
        <time>2017-06-08T15:58:05Z</time>
      </trkpt>
      <trkpt lat="50.2508" lon="5.12469">
        <ele>308.8483072557</ele>
        <time>2017-06-08T15:58:09Z</time>
      </trkpt>
      <trkpt lat="50.25057" lon="5.12491">
        <ele>310.01005394313</ele>
        <time>2017-06-08T15:58:14Z</time>
      </trkpt>
      <trkpt lat="50.2504" lon="5.12504">
        <ele>310.73779404514</ele>
        <time>2017-06-08T15:58:18Z</time>
      </trkpt>
      <trkpt lat="50.25028" lon="5.12482">
        <ele>313.16028026962</ele>
        <time>2017-06-08T15:58:23Z</time>
      </trkpt>
      <trkpt lat="50.25023" lon="5.12451">
        <ele>313.13521388947</ele>
        <time>2017-06-08T15:58:27Z</time>
      </trkpt>
      <trkpt lat="50.25024" lon="5.12409">
        <ele>313.56672200567</ele>
        <time>2017-06-08T15:58:32Z</time>
      </trkpt>
      <trkpt lat="50.25034" lon="5.12367">
        <ele>316.1190392628</ele>
        <time>2017-06-08T15:58:37Z</time>
      </trkpt>
      <trkpt lat="50.25051" lon="5.12337">
        <ele>318.11129798157</ele>
        <time>2017-06-08T15:58:41Z</time>
      </trkpt>
      <trkpt lat="50.2507" lon="5.12304">
        <ele>317.17971784286</ele>
        <time>2017-06-08T15:58:46Z</time>
      </trkpt>
      <trkpt lat="50.25074" lon="5.12279">
        <ele>317.70162710782</ele>
        <time>2017-06-08T15:58:50Z</time>
      </trkpt>
      <trkpt lat="50.25065" lon="5.12249">
        <ele>313.60548058037</ele>
        <time>2017-06-08T15:58:55Z</time>
      </trkpt>
      <trkpt lat="50.2505" lon="5.12223">
        <ele>311.06644705774</ele>
        <time>2017-06-08T15:59:00Z</time>
      </trkpt>
      <trkpt lat="50.25032" lon="5.12214">
        <ele>310.00322911324</ele>
        <time>2017-06-08T15:59:04Z</time>
      </trkpt>
      <trkpt lat="50.25006" lon="5.12224">
        <ele>312.54585543597</ele>
        <time>2017-06-08T15:59:09Z</time>
      </trkpt>
      <trkpt lat="50.25001" lon="5.12226">
        <ele>313.06676179512</ele>
        <time>2017-06-08T15:59:10Z</time>
      </trkpt>
      <trkpt lat="50.24927" lon="5.12247">
        <ele>323.88018084274</ele>
        <time>2017-06-08T15:59:26Z</time>
      </trkpt>
      <trkpt lat="50.24902" lon="5.12241">
        <ele>322.30117235343</ele>
        <time>2017-06-08T15:59:30Z</time>
      </trkpt>
      <trkpt lat="50.24882" lon="5.12234">
        <ele>322.06431970569</ele>
        <time>2017-06-08T15:59:34Z</time>
      </trkpt>
      <trkpt lat="50.2486" lon="5.12227">
        <ele>321.93532224587</ele>
        <time>2017-06-08T15:59:38Z</time>
      </trkpt>
      <trkpt lat="50.24838" lon="5.12219">
        <ele>321.98399139472</ele>
        <time>2017-06-08T15:59:42Z</time>
      </trkpt>
      <trkpt lat="50.24814" lon="5.12211">
        <ele>321.08675051479</ele>
        <time>2017-06-08T15:59:46Z</time>
      </trkpt>
      <trkpt lat="50.24786" lon="5.12201">
        <ele>319.8952194202</ele>
        <time>2017-06-08T15:59:51Z</time>
      </trkpt>
      <trkpt lat="50.24763" lon="5.12194">
        <ele>319.49648388868</ele>
        <time>2017-06-08T15:59:55Z</time>
      </trkpt>
      <trkpt lat="50.24736" lon="5.12184">
        <ele>319.56705805401</ele>
        <time>2017-06-08T16:00:00Z</time>
      </trkpt>
      <trkpt lat="50.24712" lon="5.12175">
        <ele>319.82497146606</ele>
        <time>2017-06-08T16:00:04Z</time>
      </trkpt>
      <trkpt lat="50.24683" lon="5.1216">
        <ele>320.41385946217</ele>
        <time>2017-06-08T16:00:09Z</time>
      </trkpt>
      <trkpt lat="50.24661" lon="5.12143">
        <ele>320.85717180498</ele>
        <time>2017-06-08T16:00:13Z</time>
      </trkpt>
      <trkpt lat="50.24635" lon="5.12113">
        <ele>321.39069884886</ele>
        <time>2017-06-08T16:00:18Z</time>
      </trkpt>
      <trkpt lat="50.24623" lon="5.12078">
        <ele>323.67038292388</ele>
        <time>2017-06-08T16:00:22Z</time>
      </trkpt>
      <trkpt lat="50.24612" lon="5.12041">
        <ele>326.03576169701</ele>
        <time>2017-06-08T16:00:26Z</time>
      </trkpt>
      <trkpt lat="50.24595" lon="5.11992">
        <ele>327.75820093498</ele>
        <time>2017-06-08T16:00:31Z</time>
      </trkpt>
      <trkpt lat="50.24584" lon="5.11954">
        <ele>328.45349014302</ele>
        <time>2017-06-08T16:00:35Z</time>
      </trkpt>
      <trkpt lat="50.24573" lon="5.11917">
        <ele>328.84116667632</ele>
        <time>2017-06-08T16:00:39Z</time>
      </trkpt>
      <trkpt lat="50.24564" lon="5.11881">
        <ele>329.12226994002</ele>
        <time>2017-06-08T16:00:43Z</time>
      </trkpt>
      <trkpt lat="50.24554" lon="5.11845">
        <ele>329.57779371861</ele>
        <time>2017-06-08T16:00:47Z</time>
      </trkpt>
      <trkpt lat="50.24539" lon="5.11804">
        <ele>330.05045049398</ele>
        <time>2017-06-08T16:00:52Z</time>
      </trkpt>
      <trkpt lat="50.24523" lon="5.11764">
        <ele>330.18998709177</ele>
        <time>2017-06-08T16:00:57Z</time>
      </trkpt>
      <trkpt lat="50.24512" lon="5.11734">
        <ele>330.82230980329</ele>
        <time>2017-06-08T16:01:01Z</time>
      </trkpt>
      <trkpt lat="50.24495" lon="5.11695">
        <ele>331.4817535385</ele>
        <time>2017-06-08T16:01:06Z</time>
      </trkpt>
      <trkpt lat="50.24481" lon="5.11661">
        <ele>331.77850941065</ele>
        <time>2017-06-08T16:01:10Z</time>
      </trkpt>
      <trkpt lat="50.24467" lon="5.11627">
        <ele>331.89008787924</ele>
        <time>2017-06-08T16:01:14Z</time>
      </trkpt>
      <trkpt lat="50.24453" lon="5.11595">
        <ele>332.35826316918</ele>
        <time>2017-06-08T16:01:18Z</time>
      </trkpt>
      <trkpt lat="50.24437" lon="5.11555">
        <ele>333.22469519183</ele>
        <time>2017-06-08T16:01:23Z</time>
      </trkpt>
      <trkpt lat="50.24421" lon="5.11514">
        <ele>333.98194862983</ele>
        <time>2017-06-08T16:01:28Z</time>
      </trkpt>
      <trkpt lat="50.24408" lon="5.11473">
        <ele>334.74797332314</ele>
        <time>2017-06-08T16:01:33Z</time>
      </trkpt>
      <trkpt lat="50.24399" lon="5.11439">
        <ele>334.88168116978</ele>
        <time>2017-06-08T16:01:37Z</time>
      </trkpt>
      <trkpt lat="50.24391" lon="5.11404">
        <ele>335.29414197097</ele>
        <time>2017-06-08T16:01:41Z</time>
      </trkpt>
      <trkpt lat="50.24381" lon="5.1136">
        <ele>335.8691167881</ele>
        <time>2017-06-08T16:01:46Z</time>
      </trkpt>
      <trkpt lat="50.2437" lon="5.11316">
        <ele>336.70395525184</ele>
        <time>2017-06-08T16:01:51Z</time>
      </trkpt>
      <trkpt lat="50.24363" lon="5.11283">
        <ele>337.79923899038</ele>
        <time>2017-06-08T16:01:55Z</time>
      </trkpt>
      <trkpt lat="50.24354" lon="5.11249">
        <ele>338.18744872418</ele>
        <time>2017-06-08T16:01:59Z</time>
      </trkpt>
      <trkpt lat="50.24342" lon="5.11209">
        <ele>338.88963896213</ele>
        <time>2017-06-08T16:02:04Z</time>
      </trkpt>
      <trkpt lat="50.24332" lon="5.11178">
        <ele>339.16829376599</ele>
        <time>2017-06-08T16:02:08Z</time>
      </trkpt>
      <trkpt lat="50.24322" lon="5.11149">
        <ele>339.69780785967</ele>
        <time>2017-06-08T16:02:12Z</time>
      </trkpt>
      <trkpt lat="50.24309" lon="5.11131">
        <ele>340.80685575928</ele>
        <time>2017-06-08T16:02:17Z</time>
      </trkpt>
      <trkpt lat="50.24303" lon="5.1112">
        <ele>340.72584856903</ele>
        <time>2017-06-08T16:02:25Z</time>
      </trkpt>
      <trkpt lat="50.24306" lon="5.11111">
        <ele>340.33217473969</ele>
        <time>2017-06-08T16:03:39Z</time>
      </trkpt>
      <trkpt lat="50.24302" lon="5.11088">
        <ele>338.02561006996</ele>
        <time>2017-06-08T16:03:44Z</time>
      </trkpt>
      <trkpt lat="50.24291" lon="5.11059">
        <ele>338.52547177308</ele>
        <time>2017-06-08T16:03:48Z</time>
      </trkpt>
      <trkpt lat="50.24276" lon="5.11018">
        <ele>339.05075401869</ele>
        <time>2017-06-08T16:03:53Z</time>
      </trkpt>
      <trkpt lat="50.24261" lon="5.10982">
        <ele>339.02964565974</ele>
        <time>2017-06-08T16:03:57Z</time>
      </trkpt>
      <trkpt lat="50.24241" lon="5.10938">
        <ele>339.11228434964</ele>
        <time>2017-06-08T16:04:02Z</time>
      </trkpt>
      <trkpt lat="50.24225" lon="5.10905">
        <ele>339.69459358942</ele>
        <time>2017-06-08T16:04:06Z</time>
      </trkpt>
      <trkpt lat="50.24207" lon="5.10865">
        <ele>340.18069136559</ele>
        <time>2017-06-08T16:04:11Z</time>
      </trkpt>
      <trkpt lat="50.24192" lon="5.10833">
        <ele>339.51229857444</ele>
        <time>2017-06-08T16:04:15Z</time>
      </trkpt>
      <trkpt lat="50.24171" lon="5.1079">
        <ele>337.28546968053</ele>
        <time>2017-06-08T16:04:20Z</time>
      </trkpt>
      <trkpt lat="50.24153" lon="5.10756">
        <ele>335.71117805407</ele>
        <time>2017-06-08T16:04:24Z</time>
      </trkpt>
      <trkpt lat="50.24128" lon="5.10723">
        <ele>335.0429564892</ele>
        <time>2017-06-08T16:04:29Z</time>
      </trkpt>
      <trkpt lat="50.24102" lon="5.10703">
        <ele>335.94107202249</ele>
        <time>2017-06-08T16:04:34Z</time>
      </trkpt>
      <trkpt lat="50.24077" lon="5.10688">
        <ele>336.25727569451</ele>
        <time>2017-06-08T16:04:38Z</time>
      </trkpt>
      <trkpt lat="50.24051" lon="5.10671">
        <ele>336.00933425493</ele>
        <time>2017-06-08T16:04:42Z</time>
      </trkpt>
      <trkpt lat="50.24019" lon="5.10648">
        <ele>334.49426743014</ele>
        <time>2017-06-08T16:04:47Z</time>
      </trkpt>
      <trkpt lat="50.23996" lon="5.10625">
        <ele>332.40437228171</ele>
        <time>2017-06-08T16:04:51Z</time>
      </trkpt>
      <trkpt lat="50.23978" lon="5.10598">
        <ele>331.49081723593</ele>
        <time>2017-06-08T16:04:55Z</time>
      </trkpt>
      <trkpt lat="50.23963" lon="5.10569">
        <ele>332.39546598588</ele>
        <time>2017-06-08T16:04:59Z</time>
      </trkpt>
      <trkpt lat="50.23948" lon="5.10534">
        <ele>334.77613970042</ele>
        <time>2017-06-08T16:05:03Z</time>
      </trkpt>
      <trkpt lat="50.23932" lon="5.1049">
        <ele>335.97586817713</ele>
        <time>2017-06-08T16:05:08Z</time>
      </trkpt>
      <trkpt lat="50.23918" lon="5.10457">
        <ele>338.06063067918</ele>
        <time>2017-06-08T16:05:12Z</time>
      </trkpt>
      <trkpt lat="50.23908" lon="5.10434">
        <ele>339.04988056026</ele>
        <time>2017-06-08T16:05:17Z</time>
      </trkpt>
      <trkpt lat="50.23883" lon="5.10441">
        <ele>335.4978823422</ele>
        <time>2017-06-08T16:05:22Z</time>
      </trkpt>
      <trkpt lat="50.23859" lon="5.10452">
        <ele>333.13138044405</ele>
        <time>2017-06-08T16:05:26Z</time>
      </trkpt>
      <trkpt lat="50.23848" lon="5.10459">
        <ele>332.59911285223</ele>
        <time>2017-06-08T16:05:28Z</time>
      </trkpt>
      <trkpt lat="50.23689" lon="5.10627">
        <ele>314.46055051451</ele>
        <time>2017-06-08T16:05:54Z</time>
      </trkpt>
      <trkpt lat="50.23642" lon="5.10664">
        <ele>312.5896413874</ele>
        <time>2017-06-08T16:05:58Z</time>
      </trkpt>
      <trkpt lat="50.23592" lon="5.10689">
        <ele>307.21355578596</ele>
        <time>2017-06-08T16:06:03Z</time>
      </trkpt>
      <trkpt lat="50.23553" lon="5.10706">
        <ele>302.15499269204</ele>
        <time>2017-06-08T16:06:07Z</time>
      </trkpt>
      <trkpt lat="50.23515" lon="5.10724">
        <ele>298.54796111168</ele>
        <time>2017-06-08T16:06:11Z</time>
      </trkpt>
      <trkpt lat="50.23481" lon="5.10746">
        <ele>296.00582604547</ele>
        <time>2017-06-08T16:06:15Z</time>
      </trkpt>
      <trkpt lat="50.23448" lon="5.1077">
        <ele>294.4272873116</ele>
        <time>2017-06-08T16:06:19Z</time>
      </trkpt>
      <trkpt lat="50.23407" lon="5.10804">
        <ele>293.12243078852</ele>
        <time>2017-06-08T16:06:24Z</time>
      </trkpt>
      <trkpt lat="50.23374" lon="5.1083">
        <ele>290.77332456746</ele>
        <time>2017-06-08T16:06:28Z</time>
      </trkpt>
      <trkpt lat="50.2334" lon="5.10863">
        <ele>287.22739152272</ele>
        <time>2017-06-08T16:06:32Z</time>
      </trkpt>
      <trkpt lat="50.23307" lon="5.10898">
        <ele>283.73052940521</ele>
        <time>2017-06-08T16:06:36Z</time>
      </trkpt>
      <trkpt lat="50.23266" lon="5.10943">
        <ele>282.44551098599</ele>
        <time>2017-06-08T16:06:41Z</time>
      </trkpt>
      <trkpt lat="50.23237" lon="5.10977">
        <ele>282.84907095221</ele>
        <time>2017-06-08T16:06:45Z</time>
      </trkpt>
      <trkpt lat="50.23209" lon="5.11009">
        <ele>282.51232626722</ele>
        <time>2017-06-08T16:06:49Z</time>
      </trkpt>
      <trkpt lat="50.23183" lon="5.11039">
        <ele>281.76288127075</ele>
        <time>2017-06-08T16:06:53Z</time>
      </trkpt>
      <trkpt lat="50.23158" lon="5.11067">
        <ele>281.91277012627</ele>
        <time>2017-06-08T16:06:57Z</time>
      </trkpt>
      <trkpt lat="50.23137" lon="5.11089">
        <ele>282.30892044855</ele>
        <time>2017-06-08T16:07:01Z</time>
      </trkpt>
      <trkpt lat="50.23117" lon="5.11111">
        <ele>282.9086426582</ele>
        <time>2017-06-08T16:07:05Z</time>
      </trkpt>
      <trkpt lat="50.23094" lon="5.11138">
        <ele>284.17363831707</ele>
        <time>2017-06-08T16:07:10Z</time>
      </trkpt>
      <trkpt lat="50.23075" lon="5.11158">
        <ele>286.61563542008</ele>
        <time>2017-06-08T16:07:14Z</time>
      </trkpt>
      <trkpt lat="50.23052" lon="5.11185">
        <ele>288.58126184539</ele>
        <time>2017-06-08T16:07:19Z</time>
      </trkpt>
      <trkpt lat="50.23035" lon="5.11203">
        <ele>288.36544798682</ele>
        <time>2017-06-08T16:07:23Z</time>
      </trkpt>
      <trkpt lat="50.23011" lon="5.11229">
        <ele>288.4688292034</ele>
        <time>2017-06-08T16:07:28Z</time>
      </trkpt>
      <trkpt lat="50.23006" lon="5.11235">
        <ele>288.77858072863</ele>
        <time>2017-06-08T16:07:29Z</time>
      </trkpt>
      <trkpt lat="50.22972" lon="5.11274">
        <ele>288.54731850642</ele>
        <time>2017-06-08T16:07:38Z</time>
      </trkpt>
      <trkpt lat="50.22952" lon="5.11299">
        <ele>286.80963063126</ele>
        <time>2017-06-08T16:07:42Z</time>
      </trkpt>
      <trkpt lat="50.22936" lon="5.11323">
        <ele>286.65261370497</ele>
        <time>2017-06-08T16:07:46Z</time>
      </trkpt>
      <trkpt lat="50.22913" lon="5.11364">
        <ele>286.43133174115</ele>
        <time>2017-06-08T16:07:51Z</time>
      </trkpt>
      <trkpt lat="50.22894" lon="5.11397">
        <ele>285.23106711192</ele>
        <time>2017-06-08T16:07:55Z</time>
      </trkpt>
      <trkpt lat="50.22866" lon="5.11442">
        <ele>283.51501755661</ele>
        <time>2017-06-08T16:08:00Z</time>
      </trkpt>
      <trkpt lat="50.22843" lon="5.1148">
        <ele>282.1740629437</ele>
        <time>2017-06-08T16:08:04Z</time>
      </trkpt>
      <trkpt lat="50.22808" lon="5.11523">
        <ele>280.00635654266</ele>
        <time>2017-06-08T16:08:09Z</time>
      </trkpt>
      <trkpt lat="50.22779" lon="5.11552">
        <ele>276.28934646147</ele>
        <time>2017-06-08T16:08:13Z</time>
      </trkpt>
      <trkpt lat="50.22749" lon="5.11582">
        <ele>271.81638383273</ele>
        <time>2017-06-08T16:08:17Z</time>
      </trkpt>
      <trkpt lat="50.22722" lon="5.11619">
        <ele>269.18291216701</ele>
        <time>2017-06-08T16:08:21Z</time>
      </trkpt>
      <trkpt lat="50.22691" lon="5.11669">
        <ele>266.95831560052</ele>
        <time>2017-06-08T16:08:26Z</time>
      </trkpt>
      <trkpt lat="50.22661" lon="5.11722">
        <ele>263.67114123261</ele>
        <time>2017-06-08T16:08:31Z</time>
      </trkpt>
      <trkpt lat="50.22637" lon="5.11764">
        <ele>261.08236694349</ele>
        <time>2017-06-08T16:08:35Z</time>
      </trkpt>
      <trkpt lat="50.22614" lon="5.11814">
        <ele>259.59553384142</ele>
        <time>2017-06-08T16:08:40Z</time>
      </trkpt>
      <trkpt lat="50.22594" lon="5.11841">
        <ele>258.68785638591</ele>
        <time>2017-06-08T16:08:45Z</time>
      </trkpt>
      <trkpt lat="50.22578" lon="5.11865">
        <ele>257.41506595686</ele>
        <time>2017-06-08T16:08:49Z</time>
      </trkpt>
      <trkpt lat="50.2257" lon="5.11877">
        <ele>257.21675613427</ele>
        <time>2017-06-08T16:08:51Z</time>
      </trkpt>
      <trkpt lat="50.22554" lon="5.11902">
        <ele>258.31010105795</ele>
        <time>2017-06-08T16:08:55Z</time>
      </trkpt>
      <trkpt lat="50.22534" lon="5.11938">
        <ele>258.06931003686</ele>
        <time>2017-06-08T16:09:00Z</time>
      </trkpt>
      <trkpt lat="50.22512" lon="5.11975">
        <ele>255.63583794252</ele>
        <time>2017-06-08T16:09:05Z</time>
      </trkpt>
      <trkpt lat="50.22485" lon="5.12003">
        <ele>251.32138694841</ele>
        <time>2017-06-08T16:09:10Z</time>
      </trkpt>
      <trkpt lat="50.22462" lon="5.1202">
        <ele>249.18691323995</ele>
        <time>2017-06-08T16:09:14Z</time>
      </trkpt>
      <trkpt lat="50.2244" lon="5.12035">
        <ele>246.2918644856</ele>
        <time>2017-06-08T16:09:18Z</time>
      </trkpt>
      <trkpt lat="50.22411" lon="5.12054">
        <ele>242.61712863498</ele>
        <time>2017-06-08T16:09:23Z</time>
      </trkpt>
      <trkpt lat="50.22392" lon="5.12067">
        <ele>240.82425953687</ele>
        <time>2017-06-08T16:09:27Z</time>
      </trkpt>
      <trkpt lat="50.22378" lon="5.12088">
        <ele>238.60662715766</ele>
        <time>2017-06-08T16:09:32Z</time>
      </trkpt>
      <trkpt lat="50.22361" lon="5.12092">
        <ele>236.08320953199</ele>
        <time>2017-06-08T16:09:36Z</time>
      </trkpt>
      <trkpt lat="50.22333" lon="5.12117">
        <ele>232.32819963084</ele>
        <time>2017-06-08T16:09:41Z</time>
      </trkpt>
      <trkpt lat="50.2231" lon="5.12157">
        <ele>230.28590982429</ele>
        <time>2017-06-08T16:09:45Z</time>
      </trkpt>
      <trkpt lat="50.22284" lon="5.12216">
        <ele>227.53530063597</ele>
        <time>2017-06-08T16:09:50Z</time>
      </trkpt>
      <trkpt lat="50.22267" lon="5.12256">
        <ele>224.92551834114</ele>
        <time>2017-06-08T16:09:54Z</time>
      </trkpt>
      <trkpt lat="50.22252" lon="5.12285">
        <ele>225.02517242595</ele>
        <time>2017-06-08T16:09:59Z</time>
      </trkpt>
      <trkpt lat="50.22238" lon="5.12299">
        <ele>225.27718400258</ele>
        <time>2017-06-08T16:10:03Z</time>
      </trkpt>
      <trkpt lat="50.22224" lon="5.12316">
        <ele>227.35243711743</ele>
        <time>2017-06-08T16:10:07Z</time>
      </trkpt>
      <trkpt lat="50.22209" lon="5.12333">
        <ele>229.56470569499</ele>
        <time>2017-06-08T16:10:11Z</time>
      </trkpt>
      <trkpt lat="50.22193" lon="5.12355">
        <ele>232.0044667123</ele>
        <time>2017-06-08T16:10:16Z</time>
      </trkpt>
      <trkpt lat="50.22179" lon="5.12373">
        <ele>233.2758326357</ele>
        <time>2017-06-08T16:10:20Z</time>
      </trkpt>
      <trkpt lat="50.22164" lon="5.1239">
        <ele>233.22880149776</ele>
        <time>2017-06-08T16:10:24Z</time>
      </trkpt>
      <trkpt lat="50.22148" lon="5.12403">
        <ele>233.59064160127</ele>
        <time>2017-06-08T16:10:28Z</time>
      </trkpt>
      <trkpt lat="50.2213" lon="5.12409">
        <ele>233.57200804359</ele>
        <time>2017-06-08T16:10:33Z</time>
      </trkpt>
      <trkpt lat="50.22113" lon="5.12405">
        <ele>235.59446122013</ele>
        <time>2017-06-08T16:10:37Z</time>
      </trkpt>
      <trkpt lat="50.22093" lon="5.12389">
        <ele>238.73554676624</ele>
        <time>2017-06-08T16:10:42Z</time>
      </trkpt>
      <trkpt lat="50.22076" lon="5.12369">
        <ele>241.33646919646</ele>
        <time>2017-06-08T16:10:47Z</time>
      </trkpt>
      <trkpt lat="50.22063" lon="5.12355">
        <ele>242.48857280444</ele>
        <time>2017-06-08T16:10:51Z</time>
      </trkpt>
      <trkpt lat="50.22049" lon="5.12339">
        <ele>243.90631668891</ele>
        <time>2017-06-08T16:10:55Z</time>
      </trkpt>
      <trkpt lat="50.22036" lon="5.12329">
        <ele>245.62871810171</ele>
        <time>2017-06-08T16:10:59Z</time>
      </trkpt>
      <trkpt lat="50.22016" lon="5.12316">
        <ele>247.55410199128</ele>
        <time>2017-06-08T16:11:04Z</time>
      </trkpt>
      <trkpt lat="50.21994" lon="5.12304">
        <ele>249.01763646151</ele>
        <time>2017-06-08T16:11:09Z</time>
      </trkpt>
      <trkpt lat="50.21972" lon="5.12294">
        <ele>249.14382512679</ele>
        <time>2017-06-08T16:11:14Z</time>
      </trkpt>
      <trkpt lat="50.21955" lon="5.12284">
        <ele>249.41396997846</ele>
        <time>2017-06-08T16:11:18Z</time>
      </trkpt>
      <trkpt lat="50.21941" lon="5.12277">
        <ele>251.91526899966</ele>
        <time>2017-06-08T16:11:22Z</time>
      </trkpt>
      <trkpt lat="50.21925" lon="5.12269">
        <ele>254.4813496087</ele>
        <time>2017-06-08T16:11:26Z</time>
      </trkpt>
      <trkpt lat="50.21904" lon="5.12257">
        <ele>256.95527999255</ele>
        <time>2017-06-08T16:11:31Z</time>
      </trkpt>
      <trkpt lat="50.21882" lon="5.12246">
        <ele>257.37061517873</ele>
        <time>2017-06-08T16:11:36Z</time>
      </trkpt>
      <trkpt lat="50.21866" lon="5.12237">
        <ele>258.42204249451</ele>
        <time>2017-06-08T16:11:40Z</time>
      </trkpt>
      <trkpt lat="50.21844" lon="5.12229">
        <ele>259.7940088958</ele>
        <time>2017-06-08T16:11:45Z</time>
      </trkpt>
      <trkpt lat="50.21826" lon="5.12224">
        <ele>260.03317470159</ele>
        <time>2017-06-08T16:11:49Z</time>
      </trkpt>
      <trkpt lat="50.21804" lon="5.12224">
        <ele>259.99226586496</ele>
        <time>2017-06-08T16:11:54Z</time>
      </trkpt>
      <trkpt lat="50.21786" lon="5.12227">
        <ele>260.00088130456</ele>
        <time>2017-06-08T16:11:58Z</time>
      </trkpt>
      <trkpt lat="50.21768" lon="5.12232">
        <ele>261.19249139321</ele>
        <time>2017-06-08T16:12:02Z</time>
      </trkpt>
      <trkpt lat="50.21747" lon="5.12241">
        <ele>262.0626229616</ele>
        <time>2017-06-08T16:12:07Z</time>
      </trkpt>
      <trkpt lat="50.2173" lon="5.12249">
        <ele>263.39588873461</ele>
        <time>2017-06-08T16:12:11Z</time>
      </trkpt>
      <trkpt lat="50.21708" lon="5.12259">
        <ele>265.67746880987</ele>
        <time>2017-06-08T16:12:16Z</time>
      </trkpt>
      <trkpt lat="50.21691" lon="5.12268">
        <ele>267.45463992059</ele>
        <time>2017-06-08T16:12:20Z</time>
      </trkpt>
      <trkpt lat="50.21673" lon="5.12278">
        <ele>269.2492605041</ele>
        <time>2017-06-08T16:12:24Z</time>
      </trkpt>
      <trkpt lat="50.21657" lon="5.12291">
        <ele>271.33636927599</ele>
        <time>2017-06-08T16:12:28Z</time>
      </trkpt>
      <trkpt lat="50.21642" lon="5.12308">
        <ele>272.37034144929</ele>
        <time>2017-06-08T16:12:32Z</time>
      </trkpt>
      <trkpt lat="50.2163" lon="5.12328">
        <ele>273.30565861705</ele>
        <time>2017-06-08T16:12:36Z</time>
      </trkpt>
      <trkpt lat="50.2162" lon="5.12348">
        <ele>274.14734310781</ele>
        <time>2017-06-08T16:12:40Z</time>
      </trkpt>
      <trkpt lat="50.2161" lon="5.12369">
        <ele>274.77286089531</ele>
        <time>2017-06-08T16:12:44Z</time>
      </trkpt>
      <trkpt lat="50.216" lon="5.1239">
        <ele>276.05429287988</ele>
        <time>2017-06-08T16:12:48Z</time>
      </trkpt>
      <trkpt lat="50.21588" lon="5.12409">
        <ele>278.24178563367</ele>
        <time>2017-06-08T16:12:52Z</time>
      </trkpt>
      <trkpt lat="50.21574" lon="5.12428">
        <ele>279.88422240585</ele>
        <time>2017-06-08T16:12:56Z</time>
      </trkpt>
      <trkpt lat="50.21559" lon="5.12445">
        <ele>281.02464511288</ele>
        <time>2017-06-08T16:13:00Z</time>
      </trkpt>
      <trkpt lat="50.2154" lon="5.12465">
        <ele>281.58493450612</ele>
        <time>2017-06-08T16:13:05Z</time>
      </trkpt>
      <trkpt lat="50.2152" lon="5.12486">
        <ele>281.82853687967</ele>
        <time>2017-06-08T16:13:10Z</time>
      </trkpt>
      <trkpt lat="50.21502" lon="5.12505">
        <ele>280.50902509422</ele>
        <time>2017-06-08T16:13:14Z</time>
      </trkpt>
      <trkpt lat="50.21479" lon="5.12533">
        <ele>280.1701033794</ele>
        <time>2017-06-08T16:13:19Z</time>
      </trkpt>
      <trkpt lat="50.21465" lon="5.1256">
        <ele>279.53862431043</ele>
        <time>2017-06-08T16:13:23Z</time>
      </trkpt>
      <trkpt lat="50.21452" lon="5.12607">
        <ele>280.60201084985</ele>
        <time>2017-06-08T16:13:28Z</time>
      </trkpt>
      <trkpt lat="50.21444" lon="5.12644">
        <ele>282.60048804663</ele>
        <time>2017-06-08T16:13:32Z</time>
      </trkpt>
      <trkpt lat="50.21434" lon="5.12688">
        <ele>284.6169877541</ele>
        <time>2017-06-08T16:13:37Z</time>
      </trkpt>
      <trkpt lat="50.21427" lon="5.12722">
        <ele>285.64430018554</ele>
        <time>2017-06-08T16:13:41Z</time>
      </trkpt>
      <trkpt lat="50.21417" lon="5.12765">
        <ele>286.50671484569</ele>
        <time>2017-06-08T16:13:46Z</time>
      </trkpt>
      <trkpt lat="50.21408" lon="5.1281">
        <ele>287.9083929403</ele>
        <time>2017-06-08T16:13:51Z</time>
      </trkpt>
      <trkpt lat="50.21404" lon="5.12845">
        <ele>289.00842276486</ele>
        <time>2017-06-08T16:13:55Z</time>
      </trkpt>
      <trkpt lat="50.21401" lon="5.12879">
        <ele>290.04102070686</ele>
        <time>2017-06-08T16:13:59Z</time>
      </trkpt>
      <trkpt lat="50.21397" lon="5.12921">
        <ele>291.85034152799</ele>
        <time>2017-06-08T16:14:04Z</time>
      </trkpt>
      <trkpt lat="50.21393" lon="5.12955">
        <ele>293.53941518645</ele>
        <time>2017-06-08T16:14:08Z</time>
      </trkpt>
      <trkpt lat="50.2139" lon="5.12986">
        <ele>295.09862063362</ele>
        <time>2017-06-08T16:14:12Z</time>
      </trkpt>
      <trkpt lat="50.21385" lon="5.13027">
        <ele>296.71327742744</ele>
        <time>2017-06-08T16:14:17Z</time>
      </trkpt>
      <trkpt lat="50.2138" lon="5.1306">
        <ele>298.04222568067</ele>
        <time>2017-06-08T16:14:21Z</time>
      </trkpt>
      <trkpt lat="50.21373" lon="5.13093">
        <ele>298.94657885422</ele>
        <time>2017-06-08T16:14:25Z</time>
      </trkpt>
      <trkpt lat="50.21365" lon="5.13126">
        <ele>299.54919587665</ele>
        <time>2017-06-08T16:14:29Z</time>
      </trkpt>
      <trkpt lat="50.21356" lon="5.13163">
        <ele>299.29085651234</ele>
        <time>2017-06-08T16:14:34Z</time>
      </trkpt>
      <trkpt lat="50.21348" lon="5.13197">
        <ele>299.21913843387</ele>
        <time>2017-06-08T16:14:38Z</time>
      </trkpt>
      <trkpt lat="50.21339" lon="5.13232">
        <ele>299.23733437994</ele>
        <time>2017-06-08T16:14:42Z</time>
      </trkpt>
      <trkpt lat="50.21322" lon="5.1327">
        <ele>298.83494646282</ele>
        <time>2017-06-08T16:14:47Z</time>
      </trkpt>
      <trkpt lat="50.21301" lon="5.13298">
        <ele>300.01681662051</ele>
        <time>2017-06-08T16:14:52Z</time>
      </trkpt>
      <trkpt lat="50.21289" lon="5.13311">
        <ele>300.6493867619</ele>
        <time>2017-06-08T16:14:57Z</time>
      </trkpt>
      <trkpt lat="50.2128" lon="5.1333">
        <ele>303.46007231604</ele>
        <time>2017-06-08T16:15:01Z</time>
      </trkpt>
      <trkpt lat="50.21277" lon="5.13372">
        <ele>303.49368714495</ele>
        <time>2017-06-08T16:15:06Z</time>
      </trkpt>
      <trkpt lat="50.21275" lon="5.13409">
        <ele>302.58905507801</ele>
        <time>2017-06-08T16:15:10Z</time>
      </trkpt>
      <trkpt lat="50.21272" lon="5.13457">
        <ele>301.64256751431</ele>
        <time>2017-06-08T16:15:15Z</time>
      </trkpt>
      <trkpt lat="50.21268" lon="5.13504">
        <ele>301.2512752593</ele>
        <time>2017-06-08T16:15:20Z</time>
      </trkpt>
      <trkpt lat="50.21266" lon="5.13541">
        <ele>301.5025851754</ele>
        <time>2017-06-08T16:15:24Z</time>
      </trkpt>
      <trkpt lat="50.21266" lon="5.13589">
        <ele>301.43590308513</ele>
        <time>2017-06-08T16:15:29Z</time>
      </trkpt>
      <trkpt lat="50.21268" lon="5.13626">
        <ele>301.00104866992</ele>
        <time>2017-06-08T16:15:33Z</time>
      </trkpt>
      <trkpt lat="50.21271" lon="5.13672">
        <ele>300.22802189216</ele>
        <time>2017-06-08T16:15:38Z</time>
      </trkpt>
      <trkpt lat="50.21281" lon="5.13724">
        <ele>299.98885434388</ele>
        <time>2017-06-08T16:15:43Z</time>
      </trkpt>
      <trkpt lat="50.21287" lon="5.13766">
        <ele>300.46459676034</ele>
        <time>2017-06-08T16:15:47Z</time>
      </trkpt>
      <trkpt lat="50.21293" lon="5.13801">
        <ele>301.09131725916</ele>
        <time>2017-06-08T16:15:51Z</time>
      </trkpt>
      <trkpt lat="50.21299" lon="5.1384">
        <ele>301.38967075886</ele>
        <time>2017-06-08T16:15:55Z</time>
      </trkpt>
      <trkpt lat="50.21308" lon="5.13878">
        <ele>301.33129273812</ele>
        <time>2017-06-08T16:15:59Z</time>
      </trkpt>
      <trkpt lat="50.21323" lon="5.13924">
        <ele>301.30291381003</ele>
        <time>2017-06-08T16:16:04Z</time>
      </trkpt>
      <trkpt lat="50.21338" lon="5.13959">
        <ele>301.00043718323</ele>
        <time>2017-06-08T16:16:08Z</time>
      </trkpt>
      <trkpt lat="50.21351" lon="5.13994">
        <ele>301.31330587458</ele>
        <time>2017-06-08T16:16:12Z</time>
      </trkpt>
      <trkpt lat="50.21364" lon="5.1403">
        <ele>302.34140289177</ele>
        <time>2017-06-08T16:16:16Z</time>
      </trkpt>
      <trkpt lat="50.2138" lon="5.14072">
        <ele>303.27282732643</ele>
        <time>2017-06-08T16:16:21Z</time>
      </trkpt>
      <trkpt lat="50.21393" lon="5.14105">
        <ele>303.46424285282</ele>
        <time>2017-06-08T16:16:25Z</time>
      </trkpt>
      <trkpt lat="50.21406" lon="5.14139">
        <ele>303.37716076303</ele>
        <time>2017-06-08T16:16:29Z</time>
      </trkpt>
      <trkpt lat="50.21422" lon="5.14182">
        <ele>303.19815116984</ele>
        <time>2017-06-08T16:16:34Z</time>
      </trkpt>
      <trkpt lat="50.21438" lon="5.14223">
        <ele>303.60047668442</ele>
        <time>2017-06-08T16:16:39Z</time>
      </trkpt>
      <trkpt lat="50.21452" lon="5.14257">
        <ele>304.23286025984</ele>
        <time>2017-06-08T16:16:43Z</time>
      </trkpt>
      <trkpt lat="50.21465" lon="5.14291">
        <ele>305.44104646235</ele>
        <time>2017-06-08T16:16:47Z</time>
      </trkpt>
      <trkpt lat="50.21479" lon="5.14326">
        <ele>306.32882415156</ele>
        <time>2017-06-08T16:16:51Z</time>
      </trkpt>
      <trkpt lat="50.21493" lon="5.1436">
        <ele>306.44997335387</ele>
        <time>2017-06-08T16:16:55Z</time>
      </trkpt>
      <trkpt lat="50.21513" lon="5.14406">
        <ele>306.17131051903</ele>
        <time>2017-06-08T16:17:00Z</time>
      </trkpt>
      <trkpt lat="50.21533" lon="5.14451">
        <ele>305.62790464961</ele>
        <time>2017-06-08T16:17:05Z</time>
      </trkpt>
      <trkpt lat="50.2155" lon="5.14487">
        <ele>304.7779704173</ele>
        <time>2017-06-08T16:17:09Z</time>
      </trkpt>
      <trkpt lat="50.21565" lon="5.14521">
        <ele>304.72174316636</ele>
        <time>2017-06-08T16:17:13Z</time>
      </trkpt>
      <trkpt lat="50.21586" lon="5.14568">
        <ele>303.2184448938</ele>
        <time>2017-06-08T16:17:18Z</time>
      </trkpt>
      <trkpt lat="50.21601" lon="5.14602">
        <ele>302.87239882239</ele>
        <time>2017-06-08T16:17:22Z</time>
      </trkpt>
      <trkpt lat="50.21618" lon="5.14636">
        <ele>303.19175333192</ele>
        <time>2017-06-08T16:17:26Z</time>
      </trkpt>
      <trkpt lat="50.21642" lon="5.1468">
        <ele>305.66773456227</ele>
        <time>2017-06-08T16:17:31Z</time>
      </trkpt>
      <trkpt lat="50.21668" lon="5.14724">
        <ele>306.90214762172</ele>
        <time>2017-06-08T16:17:36Z</time>
      </trkpt>
      <trkpt lat="50.21691" lon="5.14758">
        <ele>305.54994439283</ele>
        <time>2017-06-08T16:17:40Z</time>
      </trkpt>
      <trkpt lat="50.21717" lon="5.14799">
        <ele>305.18709032274</ele>
        <time>2017-06-08T16:17:45Z</time>
      </trkpt>
      <trkpt lat="50.21738" lon="5.14829">
        <ele>303.72864459743</ele>
        <time>2017-06-08T16:17:49Z</time>
      </trkpt>
      <trkpt lat="50.21758" lon="5.1486">
        <ele>303.06952951786</ele>
        <time>2017-06-08T16:17:53Z</time>
      </trkpt>
      <trkpt lat="50.21782" lon="5.14898">
        <ele>302.83553497014</ele>
        <time>2017-06-08T16:17:58Z</time>
      </trkpt>
      <trkpt lat="50.21803" lon="5.14929">
        <ele>302.27810235163</ele>
        <time>2017-06-08T16:18:02Z</time>
      </trkpt>
      <trkpt lat="50.21826" lon="5.14968">
        <ele>302.01887690388</ele>
        <time>2017-06-08T16:18:07Z</time>
      </trkpt>
      <trkpt lat="50.21845" lon="5.14996">
        <ele>300.80691393013</ele>
        <time>2017-06-08T16:18:11Z</time>
      </trkpt>
      <trkpt lat="50.21864" lon="5.15025">
        <ele>299.80225642146</ele>
        <time>2017-06-08T16:18:15Z</time>
      </trkpt>
      <trkpt lat="50.21884" lon="5.15055">
        <ele>299.13290720191</ele>
        <time>2017-06-08T16:18:19Z</time>
      </trkpt>
      <trkpt lat="50.21911" lon="5.15093">
        <ele>299.4722196517</ele>
        <time>2017-06-08T16:18:24Z</time>
      </trkpt>
      <trkpt lat="50.21933" lon="5.15126">
        <ele>300.17611433179</ele>
        <time>2017-06-08T16:18:28Z</time>
      </trkpt>
      <trkpt lat="50.21961" lon="5.15167">
        <ele>300.3932811997</ele>
        <time>2017-06-08T16:18:33Z</time>
      </trkpt>
      <trkpt lat="50.21983" lon="5.15199">
        <ele>300.05529805041</ele>
        <time>2017-06-08T16:18:37Z</time>
      </trkpt>
      <trkpt lat="50.22011" lon="5.1524">
        <ele>300.2856620114</ele>
        <time>2017-06-08T16:18:42Z</time>
      </trkpt>
      <trkpt lat="50.22034" lon="5.15272">
        <ele>301.14923057946</ele>
        <time>2017-06-08T16:18:46Z</time>
      </trkpt>
      <trkpt lat="50.22055" lon="5.15306">
        <ele>300.26992794997</ele>
        <time>2017-06-08T16:18:50Z</time>
      </trkpt>
      <trkpt lat="50.22081" lon="5.15346">
        <ele>298.27447370783</ele>
        <time>2017-06-08T16:18:55Z</time>
      </trkpt>
      <trkpt lat="50.22096" lon="5.1538">
        <ele>298.33817957399</ele>
        <time>2017-06-08T16:18:59Z</time>
      </trkpt>
      <trkpt lat="50.22108" lon="5.15425">
        <ele>298.59460971854</ele>
        <time>2017-06-08T16:19:04Z</time>
      </trkpt>
      <trkpt lat="50.22118" lon="5.15467">
        <ele>298.5163930113</ele>
        <time>2017-06-08T16:19:08Z</time>
      </trkpt>
      <trkpt lat="50.22132" lon="5.15518">
        <ele>297.38615614565</ele>
        <time>2017-06-08T16:19:13Z</time>
      </trkpt>
      <trkpt lat="50.22145" lon="5.15571">
        <ele>295.8668127742</ele>
        <time>2017-06-08T16:19:18Z</time>
      </trkpt>
      <trkpt lat="50.22156" lon="5.15613">
        <ele>294.82748276794</ele>
        <time>2017-06-08T16:19:22Z</time>
      </trkpt>
      <trkpt lat="50.22169" lon="5.15664">
        <ele>293.63652593984</ele>
        <time>2017-06-08T16:19:27Z</time>
      </trkpt>
      <trkpt lat="50.22182" lon="5.15715">
        <ele>293.10573471675</ele>
        <time>2017-06-08T16:19:32Z</time>
      </trkpt>
      <trkpt lat="50.22193" lon="5.15756">
        <ele>293.22293676805</ele>
        <time>2017-06-08T16:19:36Z</time>
      </trkpt>
      <trkpt lat="50.22206" lon="5.15807">
        <ele>293.60914023162</ele>
        <time>2017-06-08T16:19:41Z</time>
      </trkpt>
      <trkpt lat="50.22216" lon="5.15844">
        <ele>294.77238781119</ele>
        <time>2017-06-08T16:19:45Z</time>
      </trkpt>
      <trkpt lat="50.22229" lon="5.15887">
        <ele>295.79072845137</ele>
        <time>2017-06-08T16:19:50Z</time>
      </trkpt>
      <trkpt lat="50.22241" lon="5.15921">
        <ele>297.57829817014</ele>
        <time>2017-06-08T16:19:54Z</time>
      </trkpt>
      <trkpt lat="50.22252" lon="5.15954">
        <ele>299.92513491361</ele>
        <time>2017-06-08T16:19:58Z</time>
      </trkpt>
      <trkpt lat="50.22268" lon="5.15995">
        <ele>300.82482801996</ele>
        <time>2017-06-08T16:20:03Z</time>
      </trkpt>
      <trkpt lat="50.22283" lon="5.16035">
        <ele>300.97149970518</ele>
        <time>2017-06-08T16:20:08Z</time>
      </trkpt>
      <trkpt lat="50.22296" lon="5.16075">
        <ele>301.22456953416</ele>
        <time>2017-06-08T16:20:13Z</time>
      </trkpt>
      <trkpt lat="50.22311" lon="5.16116">
        <ele>301.86947723098</ele>
        <time>2017-06-08T16:20:18Z</time>
      </trkpt>
      <trkpt lat="50.22323" lon="5.16149">
        <ele>302.5153738962</ele>
        <time>2017-06-08T16:20:22Z</time>
      </trkpt>
      <trkpt lat="50.22339" lon="5.16193">
        <ele>302.82430855944</ele>
        <time>2017-06-08T16:20:27Z</time>
      </trkpt>
      <trkpt lat="50.22352" lon="5.16227">
        <ele>303.87246402408</ele>
        <time>2017-06-08T16:20:31Z</time>
      </trkpt>
      <trkpt lat="50.22366" lon="5.16267">
        <ele>305.05423336968</ele>
        <time>2017-06-08T16:20:36Z</time>
      </trkpt>
      <trkpt lat="50.22378" lon="5.16302">
        <ele>305.76755746846</ele>
        <time>2017-06-08T16:20:40Z</time>
      </trkpt>
      <trkpt lat="50.22391" lon="5.16336">
        <ele>306.61758879005</ele>
        <time>2017-06-08T16:20:44Z</time>
      </trkpt>
      <trkpt lat="50.22407" lon="5.1638">
        <ele>307.01695149362</ele>
        <time>2017-06-08T16:20:49Z</time>
      </trkpt>
      <trkpt lat="50.22419" lon="5.16413">
        <ele>306.69808136735</ele>
        <time>2017-06-08T16:20:53Z</time>
      </trkpt>
      <trkpt lat="50.2243" lon="5.16444">
        <ele>305.94265777255</ele>
        <time>2017-06-08T16:20:57Z</time>
      </trkpt>
      <trkpt lat="50.22446" lon="5.16487">
        <ele>306.82862917495</ele>
        <time>2017-06-08T16:21:02Z</time>
      </trkpt>
      <trkpt lat="50.22459" lon="5.16524">
        <ele>307.71339191304</ele>
        <time>2017-06-08T16:21:06Z</time>
      </trkpt>
      <trkpt lat="50.22475" lon="5.16567">
        <ele>307.88751194763</ele>
        <time>2017-06-08T16:21:11Z</time>
      </trkpt>
      <trkpt lat="50.22487" lon="5.166">
        <ele>307.33916941539</ele>
        <time>2017-06-08T16:21:15Z</time>
      </trkpt>
      <trkpt lat="50.22502" lon="5.16641">
        <ele>306.08158928432</ele>
        <time>2017-06-08T16:21:20Z</time>
      </trkpt>
      <trkpt lat="50.22514" lon="5.16672">
        <ele>306.48523619526</ele>
        <time>2017-06-08T16:21:24Z</time>
      </trkpt>
      <trkpt lat="50.22526" lon="5.16708">
        <ele>308.25781528113</ele>
        <time>2017-06-08T16:21:28Z</time>
      </trkpt>
      <trkpt lat="50.22538" lon="5.16741">
        <ele>310.49962861256</ele>
        <time>2017-06-08T16:21:32Z</time>
      </trkpt>
      <trkpt lat="50.22549" lon="5.16775">
        <ele>310.94222557852</ele>
        <time>2017-06-08T16:21:36Z</time>
      </trkpt>
      <trkpt lat="50.22564" lon="5.16816">
        <ele>312.76793060079</ele>
        <time>2017-06-08T16:21:41Z</time>
      </trkpt>
      <trkpt lat="50.22576" lon="5.16851">
        <ele>312.78158799234</ele>
        <time>2017-06-08T16:21:45Z</time>
      </trkpt>
      <trkpt lat="50.22591" lon="5.16892">
        <ele>312.328434368</ele>
        <time>2017-06-08T16:21:50Z</time>
      </trkpt>
      <trkpt lat="50.22606" lon="5.16935">
        <ele>313.48802118816</ele>
        <time>2017-06-08T16:21:55Z</time>
      </trkpt>
      <trkpt lat="50.22623" lon="5.16979">
        <ele>314.26623661923</ele>
        <time>2017-06-08T16:22:00Z</time>
      </trkpt>
      <trkpt lat="50.22636" lon="5.17013">
        <ele>315.49951281754</ele>
        <time>2017-06-08T16:22:04Z</time>
      </trkpt>
      <trkpt lat="50.22653" lon="5.17061">
        <ele>316.31032023843</ele>
        <time>2017-06-08T16:22:09Z</time>
      </trkpt>
      <trkpt lat="50.22666" lon="5.17095">
        <ele>316.75836012452</ele>
        <time>2017-06-08T16:22:13Z</time>
      </trkpt>
      <trkpt lat="50.2268" lon="5.17132">
        <ele>317.33852159198</ele>
        <time>2017-06-08T16:22:17Z</time>
      </trkpt>
      <trkpt lat="50.22692" lon="5.17165">
        <ele>318.30656245373</ele>
        <time>2017-06-08T16:22:21Z</time>
      </trkpt>
      <trkpt lat="50.22704" lon="5.17198">
        <ele>319.09815201397</ele>
        <time>2017-06-08T16:22:25Z</time>
      </trkpt>
      <trkpt lat="50.22717" lon="5.17234">
        <ele>318.42591824382</ele>
        <time>2017-06-08T16:22:29Z</time>
      </trkpt>
      <trkpt lat="50.22733" lon="5.17279">
        <ele>317.23260342832</ele>
        <time>2017-06-08T16:22:34Z</time>
      </trkpt>
      <trkpt lat="50.22746" lon="5.17314">
        <ele>317.41177567567</ele>
        <time>2017-06-08T16:22:38Z</time>
      </trkpt>
      <trkpt lat="50.22759" lon="5.17351">
        <ele>317.57656670591</ele>
        <time>2017-06-08T16:22:42Z</time>
      </trkpt>
      <trkpt lat="50.22774" lon="5.17394">
        <ele>317.90649728895</ele>
        <time>2017-06-08T16:22:47Z</time>
      </trkpt>
      <trkpt lat="50.22787" lon="5.17429">
        <ele>318.00457229205</ele>
        <time>2017-06-08T16:22:51Z</time>
      </trkpt>
      <trkpt lat="50.22802" lon="5.17471">
        <ele>318.57975003438</ele>
        <time>2017-06-08T16:22:56Z</time>
      </trkpt>
      <trkpt lat="50.22817" lon="5.17514">
        <ele>319.18270770598</ele>
        <time>2017-06-08T16:23:01Z</time>
      </trkpt>
      <trkpt lat="50.2283" lon="5.17549">
        <ele>319.6103944666</ele>
        <time>2017-06-08T16:23:05Z</time>
      </trkpt>
      <trkpt lat="50.22845" lon="5.17593">
        <ele>320.39560985898</ele>
        <time>2017-06-08T16:23:10Z</time>
      </trkpt>
      <trkpt lat="50.2286" lon="5.17634">
        <ele>321.24055563931</ele>
        <time>2017-06-08T16:23:15Z</time>
      </trkpt>
      <trkpt lat="50.22872" lon="5.17668">
        <ele>321.37120687336</ele>
        <time>2017-06-08T16:23:19Z</time>
      </trkpt>
      <trkpt lat="50.22889" lon="5.17714">
        <ele>321.49650140408</ele>
        <time>2017-06-08T16:23:24Z</time>
      </trkpt>
      <trkpt lat="50.22902" lon="5.17751">
        <ele>321.43428545144</ele>
        <time>2017-06-08T16:23:28Z</time>
      </trkpt>
      <trkpt lat="50.22916" lon="5.17788">
        <ele>321.39792229852</ele>
        <time>2017-06-08T16:23:32Z</time>
      </trkpt>
      <trkpt lat="50.2293" lon="5.17828">
        <ele>321.71230050517</ele>
        <time>2017-06-08T16:23:36Z</time>
      </trkpt>
      <trkpt lat="50.22942" lon="5.17863">
        <ele>323.17450921282</ele>
        <time>2017-06-08T16:23:40Z</time>
      </trkpt>
      <trkpt lat="50.22954" lon="5.17897">
        <ele>325.33233814004</ele>
        <time>2017-06-08T16:23:44Z</time>
      </trkpt>
      <trkpt lat="50.22965" lon="5.17928">
        <ele>326.43947004619</ele>
        <time>2017-06-08T16:23:48Z</time>
      </trkpt>
      <trkpt lat="50.22982" lon="5.17973">
        <ele>324.7336633637</ele>
        <time>2017-06-08T16:23:53Z</time>
      </trkpt>
      <trkpt lat="50.22986" lon="5.17998">
        <ele>323.73739135966</ele>
        <time>2017-06-08T16:23:57Z</time>
      </trkpt>
      <trkpt lat="50.22989" lon="5.18007">
        <ele>323.34115311232</ele>
        <time>2017-06-08T16:24:02Z</time>
      </trkpt>
      <trkpt lat="50.23009" lon="5.18025">
        <ele>321.7757454775</ele>
        <time>2017-06-08T16:24:07Z</time>
      </trkpt>
      <trkpt lat="50.23023" lon="5.18048">
        <ele>321.98782746781</ele>
        <time>2017-06-08T16:24:11Z</time>
      </trkpt>
      <trkpt lat="50.23042" lon="5.18079">
        <ele>324.28843586876</ele>
        <time>2017-06-08T16:24:16Z</time>
      </trkpt>
      <trkpt lat="50.23063" lon="5.18098">
        <ele>325.79803966883</ele>
        <time>2017-06-08T16:24:20Z</time>
      </trkpt>
      <trkpt lat="50.23089" lon="5.18123">
        <ele>327.22784331329</ele>
        <time>2017-06-08T16:24:25Z</time>
      </trkpt>
      <trkpt lat="50.23108" lon="5.18142">
        <ele>328.02815771206</ele>
        <time>2017-06-08T16:24:29Z</time>
      </trkpt>
      <trkpt lat="50.23126" lon="5.1816">
        <ele>329.40582052876</ele>
        <time>2017-06-08T16:24:33Z</time>
      </trkpt>
      <trkpt lat="50.23145" lon="5.18177">
        <ele>330.45781732257</ele>
        <time>2017-06-08T16:24:37Z</time>
      </trkpt>
      <trkpt lat="50.2317" lon="5.18201">
        <ele>330.84759847348</ele>
        <time>2017-06-08T16:24:42Z</time>
      </trkpt>
      <trkpt lat="50.23189" lon="5.18219">
        <ele>332.94200023936</ele>
        <time>2017-06-08T16:24:46Z</time>
      </trkpt>
      <trkpt lat="50.23209" lon="5.18239">
        <ele>334.16147264672</ele>
        <time>2017-06-08T16:24:50Z</time>
      </trkpt>
      <trkpt lat="50.23228" lon="5.18257">
        <ele>334.53145209314</ele>
        <time>2017-06-08T16:24:54Z</time>
      </trkpt>
      <trkpt lat="50.23248" lon="5.18276">
        <ele>334.10301064206</ele>
        <time>2017-06-08T16:24:58Z</time>
      </trkpt>
      <trkpt lat="50.23269" lon="5.18295">
        <ele>332.36123963149</ele>
        <time>2017-06-08T16:25:02Z</time>
      </trkpt>
      <trkpt lat="50.23293" lon="5.18319">
        <ele>333.13613601302</ele>
        <time>2017-06-08T16:25:07Z</time>
      </trkpt>
      <trkpt lat="50.23314" lon="5.18339">
        <ele>334.20791822585</ele>
        <time>2017-06-08T16:25:11Z</time>
      </trkpt>
      <trkpt lat="50.23336" lon="5.18361">
        <ele>333.61649707203</ele>
        <time>2017-06-08T16:25:15Z</time>
      </trkpt>
      <trkpt lat="50.23367" lon="5.1839">
        <ele>332.11536578945</ele>
        <time>2017-06-08T16:25:20Z</time>
      </trkpt>
      <trkpt lat="50.23398" lon="5.1842">
        <ele>330.38424575964</ele>
        <time>2017-06-08T16:25:24Z</time>
      </trkpt>
      <trkpt lat="50.23434" lon="5.18444">
        <ele>328.68354759729</ele>
        <time>2017-06-08T16:25:28Z</time>
      </trkpt>
      <trkpt lat="50.23481" lon="5.18467">
        <ele>327.69134371314</ele>
        <time>2017-06-08T16:25:33Z</time>
      </trkpt>
      <trkpt lat="50.23513" lon="5.18482">
        <ele>328.51762788156</ele>
        <time>2017-06-08T16:25:37Z</time>
      </trkpt>
      <trkpt lat="50.2355" lon="5.185">
        <ele>330.4388953307</ele>
        <time>2017-06-08T16:25:42Z</time>
      </trkpt>
      <trkpt lat="50.23576" lon="5.18512">
        <ele>330.33400954714</ele>
        <time>2017-06-08T16:25:46Z</time>
      </trkpt>
      <trkpt lat="50.23612" lon="5.18529">
        <ele>329.71154891163</ele>
        <time>2017-06-08T16:25:51Z</time>
      </trkpt>
      <trkpt lat="50.23652" lon="5.18549">
        <ele>330.89535159464</ele>
        <time>2017-06-08T16:25:56Z</time>
      </trkpt>
      <trkpt lat="50.23682" lon="5.18564">
        <ele>328.41417694257</ele>
        <time>2017-06-08T16:26:00Z</time>
      </trkpt>
      <trkpt lat="50.23727" lon="5.18587">
        <ele>325.35872889734</ele>
        <time>2017-06-08T16:26:05Z</time>
      </trkpt>
      <trkpt lat="50.23768" lon="5.18609">
        <ele>323.80204213963</ele>
        <time>2017-06-08T16:26:09Z</time>
      </trkpt>
      <trkpt lat="50.23813" lon="5.18632">
        <ele>321.92231233279</ele>
        <time>2017-06-08T16:26:13Z</time>
      </trkpt>
      <trkpt lat="50.2387" lon="5.1866">
        <ele>318.4030279823</ele>
        <time>2017-06-08T16:26:18Z</time>
      </trkpt>
      <trkpt lat="50.23929" lon="5.18691">
        <ele>314.51138200253</ele>
        <time>2017-06-08T16:26:23Z</time>
      </trkpt>
      <trkpt lat="50.23976" lon="5.18725">
        <ele>310.75366955681</ele>
        <time>2017-06-08T16:26:27Z</time>
      </trkpt>
      <trkpt lat="50.24025" lon="5.18765">
        <ele>306.67720134233</ele>
        <time>2017-06-08T16:26:31Z</time>
      </trkpt>
      <trkpt lat="50.2408" lon="5.18822">
        <ele>304.95789076228</ele>
        <time>2017-06-08T16:26:36Z</time>
      </trkpt>
      <trkpt lat="50.24122" lon="5.1888">
        <ele>302.25855579105</ele>
        <time>2017-06-08T16:26:40Z</time>
      </trkpt>
      <trkpt lat="50.24158" lon="5.18936">
        <ele>300.17702562148</ele>
        <time>2017-06-08T16:26:44Z</time>
      </trkpt>
      <trkpt lat="50.24197" lon="5.19002">
        <ele>295.67503165925</ele>
        <time>2017-06-08T16:26:49Z</time>
      </trkpt>
      <trkpt lat="50.24222" lon="5.19047">
        <ele>294.93573658464</ele>
        <time>2017-06-08T16:26:53Z</time>
      </trkpt>
      <trkpt lat="50.24244" lon="5.19086">
        <ele>296.65268178839</ele>
        <time>2017-06-08T16:26:57Z</time>
      </trkpt>
      <trkpt lat="50.24265" lon="5.19121">
        <ele>298.26508591702</ele>
        <time>2017-06-08T16:27:01Z</time>
      </trkpt>
      <trkpt lat="50.24287" lon="5.19163">
        <ele>300.61311963786</ele>
        <time>2017-06-08T16:27:06Z</time>
      </trkpt>
      <trkpt lat="50.24303" lon="5.19191">
        <ele>301.55772528444</ele>
        <time>2017-06-08T16:27:10Z</time>
      </trkpt>
      <trkpt lat="50.24324" lon="5.19228">
        <ele>302.93469805061</ele>
        <time>2017-06-08T16:27:15Z</time>
      </trkpt>
      <trkpt lat="50.2434" lon="5.19256">
        <ele>303.84214120818</ele>
        <time>2017-06-08T16:27:19Z</time>
      </trkpt>
      <trkpt lat="50.24361" lon="5.19292">
        <ele>304.84441363872</ele>
        <time>2017-06-08T16:27:24Z</time>
      </trkpt>
      <trkpt lat="50.24387" lon="5.1933">
        <ele>309.07050996322</ele>
        <time>2017-06-08T16:27:29Z</time>
      </trkpt>
      <trkpt lat="50.24416" lon="5.19358">
        <ele>310.7053073613</ele>
        <time>2017-06-08T16:27:34Z</time>
      </trkpt>
      <trkpt lat="50.24448" lon="5.19376">
        <ele>310.00841857659</ele>
        <time>2017-06-08T16:27:39Z</time>
      </trkpt>
      <trkpt lat="50.24474" lon="5.19388">
        <ele>310.40620717157</ele>
        <time>2017-06-08T16:27:43Z</time>
      </trkpt>
      <trkpt lat="50.24506" lon="5.19396">
        <ele>305.17058107613</ele>
        <time>2017-06-08T16:27:48Z</time>
      </trkpt>
      <trkpt lat="50.24531" lon="5.19402">
        <ele>299.98209534767</ele>
        <time>2017-06-08T16:27:52Z</time>
      </trkpt>
      <trkpt lat="50.24556" lon="5.19411">
        <ele>298.06332385709</ele>
        <time>2017-06-08T16:27:56Z</time>
      </trkpt>
      <trkpt lat="50.24584" lon="5.19422">
        <ele>298.76900134066</ele>
        <time>2017-06-08T16:28:01Z</time>
      </trkpt>
      <trkpt lat="50.24607" lon="5.19431">
        <ele>299.15222177109</ele>
        <time>2017-06-08T16:28:05Z</time>
      </trkpt>
      <trkpt lat="50.24629" lon="5.19438">
        <ele>301.37198163229</ele>
        <time>2017-06-08T16:28:09Z</time>
      </trkpt>
      <trkpt lat="50.2465" lon="5.19443">
        <ele>302.77618351158</ele>
        <time>2017-06-08T16:28:13Z</time>
      </trkpt>
      <trkpt lat="50.24671" lon="5.19449">
        <ele>304.76172517817</ele>
        <time>2017-06-08T16:28:17Z</time>
      </trkpt>
      <trkpt lat="50.24695" lon="5.19456">
        <ele>306.55950422361</ele>
        <time>2017-06-08T16:28:22Z</time>
      </trkpt>
      <trkpt lat="50.24714" lon="5.1946">
        <ele>307.56098357932</ele>
        <time>2017-06-08T16:28:26Z</time>
      </trkpt>
      <trkpt lat="50.24733" lon="5.19467">
        <ele>309.73783989637</ele>
        <time>2017-06-08T16:28:30Z</time>
      </trkpt>
      <trkpt lat="50.24751" lon="5.19471">
        <ele>309.86623886256</ele>
        <time>2017-06-08T16:28:34Z</time>
      </trkpt>
      <trkpt lat="50.24769" lon="5.19476">
        <ele>309.86810924217</ele>
        <time>2017-06-08T16:28:38Z</time>
      </trkpt>
      <trkpt lat="50.24791" lon="5.19483">
        <ele>312.21797528373</ele>
        <time>2017-06-08T16:28:43Z</time>
      </trkpt>
      <trkpt lat="50.2481" lon="5.19487">
        <ele>313.5568038899</ele>
        <time>2017-06-08T16:28:47Z</time>
      </trkpt>
      <trkpt lat="50.24827" lon="5.19481">
        <ele>313.88930952586</ele>
        <time>2017-06-08T16:28:51Z</time>
      </trkpt>
      <trkpt lat="50.24852" lon="5.19464">
        <ele>315.96278243511</ele>
        <time>2017-06-08T16:28:56Z</time>
      </trkpt>
      <trkpt lat="50.24877" lon="5.19446">
        <ele>318.75532719611</ele>
        <time>2017-06-08T16:29:01Z</time>
      </trkpt>
      <trkpt lat="50.24903" lon="5.19425">
        <ele>319.29976965502</ele>
        <time>2017-06-08T16:29:06Z</time>
      </trkpt>
      <trkpt lat="50.24923" lon="5.19406">
        <ele>319.72802576817</ele>
        <time>2017-06-08T16:29:10Z</time>
      </trkpt>
      <trkpt lat="50.24949" lon="5.19376">
        <ele>319.02345480332</ele>
        <time>2017-06-08T16:29:15Z</time>
      </trkpt>
      <trkpt lat="50.24973" lon="5.19345">
        <ele>318.73873458596</ele>
        <time>2017-06-08T16:29:19Z</time>
      </trkpt>
      <trkpt lat="50.24997" lon="5.19317">
        <ele>315.1514159078</ele>
        <time>2017-06-08T16:29:24Z</time>
      </trkpt>
      <trkpt lat="50.25009" lon="5.19338">
        <ele>310.77632341292</ele>
        <time>2017-06-08T16:29:29Z</time>
      </trkpt>
      <trkpt lat="50.25003" lon="5.19372">
        <ele>308.12824525118</ele>
        <time>2017-06-08T16:29:34Z</time>
      </trkpt>
      <trkpt lat="50.24987" lon="5.19396">
        <ele>307.83911249823</ele>
        <time>2017-06-08T16:29:39Z</time>
      </trkpt>
      <trkpt lat="50.24972" lon="5.19413">
        <ele>308.09185699048</ele>
        <time>2017-06-08T16:29:43Z</time>
      </trkpt>
      <trkpt lat="50.24957" lon="5.19429">
        <ele>309.98036999641</ele>
        <time>2017-06-08T16:29:47Z</time>
      </trkpt>
      <trkpt lat="50.24937" lon="5.19448">
        <ele>311.97503302185</ele>
        <time>2017-06-08T16:29:52Z</time>
      </trkpt>
      <trkpt lat="50.24923" lon="5.19461">
        <ele>312.31486912183</ele>
        <time>2017-06-08T16:29:56Z</time>
      </trkpt>
      <trkpt lat="50.24907" lon="5.19476">
        <ele>311.26137425726</ele>
        <time>2017-06-08T16:30:01Z</time>
      </trkpt>
      <trkpt lat="50.24896" lon="5.19495">
        <ele>310.41857190432</ele>
        <time>2017-06-08T16:30:05Z</time>
      </trkpt>
      <trkpt lat="50.24893" lon="5.19509">
        <ele>310.68955435095</ele>
        <time>2017-06-08T16:30:09Z</time>
      </trkpt>
      <trkpt lat="50.24894" lon="5.19522">
        <ele>310.49420014113</ele>
        <time>2017-06-08T16:30:47Z</time>
      </trkpt>
      <trkpt lat="50.249" lon="5.19544">
        <ele>310.9823190897</ele>
        <time>2017-06-08T16:30:52Z</time>
      </trkpt>
      <trkpt lat="50.2491" lon="5.1957">
        <ele>315.47611427834</ele>
        <time>2017-06-08T16:30:56Z</time>
      </trkpt>
      <trkpt lat="50.24921" lon="5.19606">
        <ele>318.23851411151</ele>
        <time>2017-06-08T16:31:01Z</time>
      </trkpt>
      <trkpt lat="50.24929" lon="5.19648">
        <ele>317.67465036884</ele>
        <time>2017-06-08T16:31:06Z</time>
      </trkpt>
      <trkpt lat="50.24934" lon="5.19686">
        <ele>316.17331024855</ele>
        <time>2017-06-08T16:31:10Z</time>
      </trkpt>
      <trkpt lat="50.24939" lon="5.19733">
        <ele>314.50038906213</ele>
        <time>2017-06-08T16:31:15Z</time>
      </trkpt>
      <trkpt lat="50.24945" lon="5.19779">
        <ele>312.52498558815</ele>
        <time>2017-06-08T16:31:20Z</time>
      </trkpt>
      <trkpt lat="50.2495" lon="5.19832">
        <ele>311.40569398447</ele>
        <time>2017-06-08T16:31:25Z</time>
      </trkpt>
      <trkpt lat="50.24955" lon="5.19872">
        <ele>311.18126012246</ele>
        <time>2017-06-08T16:31:29Z</time>
      </trkpt>
      <trkpt lat="50.24962" lon="5.19922">
        <ele>312.12726382907</ele>
        <time>2017-06-08T16:31:34Z</time>
      </trkpt>
      <trkpt lat="50.24968" lon="5.19974">
        <ele>312.0534438368</ele>
        <time>2017-06-08T16:31:39Z</time>
      </trkpt>
      <trkpt lat="50.24975" lon="5.20017">
        <ele>310.75678969499</ele>
        <time>2017-06-08T16:31:43Z</time>
      </trkpt>
      <trkpt lat="50.24981" lon="5.20075">
        <ele>308.09910354225</ele>
        <time>2017-06-08T16:31:48Z</time>
      </trkpt>
      <trkpt lat="50.24986" lon="5.20118">
        <ele>306.31585230851</ele>
        <time>2017-06-08T16:31:52Z</time>
      </trkpt>
      <trkpt lat="50.24995" lon="5.2016">
        <ele>305.77543098659</ele>
        <time>2017-06-08T16:31:56Z</time>
      </trkpt>
      <trkpt lat="50.25005" lon="5.20199">
        <ele>305.7552619301</ele>
        <time>2017-06-08T16:32:00Z</time>
      </trkpt>
      <trkpt lat="50.25015" lon="5.20237">
        <ele>305.38950814275</ele>
        <time>2017-06-08T16:32:04Z</time>
      </trkpt>
      <trkpt lat="50.25025" lon="5.20276">
        <ele>305.08127744266</ele>
        <time>2017-06-08T16:32:08Z</time>
      </trkpt>
      <trkpt lat="50.25035" lon="5.20311">
        <ele>305.83318699152</ele>
        <time>2017-06-08T16:32:12Z</time>
      </trkpt>
      <trkpt lat="50.25045" lon="5.20345">
        <ele>307.60806010136</ele>
        <time>2017-06-08T16:32:16Z</time>
      </trkpt>
      <trkpt lat="50.25057" lon="5.20378">
        <ele>308.3102693845</ele>
        <time>2017-06-08T16:32:20Z</time>
      </trkpt>
      <trkpt lat="50.25074" lon="5.20419">
        <ele>309.13622410156</ele>
        <time>2017-06-08T16:32:25Z</time>
      </trkpt>
      <trkpt lat="50.25088" lon="5.20446">
        <ele>311.94413977841</ele>
        <time>2017-06-08T16:32:29Z</time>
      </trkpt>
      <trkpt lat="50.25112" lon="5.20483">
        <ele>316.17584956529</ele>
        <time>2017-06-08T16:32:34Z</time>
      </trkpt>
      <trkpt lat="50.25135" lon="5.20515">
        <ele>318.84547139554</ele>
        <time>2017-06-08T16:32:39Z</time>
      </trkpt>
      <trkpt lat="50.25155" lon="5.20545">
        <ele>319.40852811058</ele>
        <time>2017-06-08T16:32:44Z</time>
      </trkpt>
      <trkpt lat="50.25172" lon="5.20571">
        <ele>318.049329157</ele>
        <time>2017-06-08T16:32:48Z</time>
      </trkpt>
      <trkpt lat="50.25186" lon="5.20594">
        <ele>318.44589594222</ele>
        <time>2017-06-08T16:32:52Z</time>
      </trkpt>
      <trkpt lat="50.25204" lon="5.20616">
        <ele>319.33643132831</ele>
        <time>2017-06-08T16:32:57Z</time>
      </trkpt>
      <trkpt lat="50.25216" lon="5.20597">
        <ele>318.6160137306</ele>
        <time>2017-06-08T16:33:01Z</time>
      </trkpt>
      <trkpt lat="50.25224" lon="5.20567">
        <ele>315.91956342442</ele>
        <time>2017-06-08T16:33:05Z</time>
      </trkpt>
      <trkpt lat="50.25226" lon="5.20532">
        <ele>313.02633558648</ele>
        <time>2017-06-08T16:33:09Z</time>
      </trkpt>
      <trkpt lat="50.2522" lon="5.20484">
        <ele>311.95715324544</ele>
        <time>2017-06-08T16:33:14Z</time>
      </trkpt>
      <trkpt lat="50.25214" lon="5.20443">
        <ele>311.40826956159</ele>
        <time>2017-06-08T16:33:18Z</time>
      </trkpt>
      <trkpt lat="50.2521" lon="5.20388">
        <ele>308.99723667235</ele>
        <time>2017-06-08T16:33:23Z</time>
      </trkpt>
      <trkpt lat="50.25207" lon="5.20338">
        <ele>306.64276585984</ele>
        <time>2017-06-08T16:33:27Z</time>
      </trkpt>
      <trkpt lat="50.25204" lon="5.20292">
        <ele>304.4921864413</ele>
        <time>2017-06-08T16:33:31Z</time>
      </trkpt>
      <trkpt lat="50.25201" lon="5.20248">
        <ele>302.72201135165</ele>
        <time>2017-06-08T16:33:35Z</time>
      </trkpt>
      <trkpt lat="50.252" lon="5.20197">
        <ele>301.44566547817</ele>
        <time>2017-06-08T16:33:40Z</time>
      </trkpt>
      <trkpt lat="50.25199" lon="5.20158">
        <ele>302.01693974462</ele>
        <time>2017-06-08T16:33:44Z</time>
      </trkpt>
      <trkpt lat="50.25199" lon="5.20108">
        <ele>302.98489798969</ele>
        <time>2017-06-08T16:33:49Z</time>
      </trkpt>
      <trkpt lat="50.25201" lon="5.20071">
        <ele>303.6564785888</ele>
        <time>2017-06-08T16:33:53Z</time>
      </trkpt>
      <trkpt lat="50.25202" lon="5.20031">
        <ele>304.51128880007</ele>
        <time>2017-06-08T16:33:57Z</time>
      </trkpt>
      <trkpt lat="50.25205" lon="5.19985">
        <ele>305.20717070848</ele>
        <time>2017-06-08T16:34:02Z</time>
      </trkpt>
      <trkpt lat="50.25206" lon="5.19933">
        <ele>305.78148252092</ele>
        <time>2017-06-08T16:34:07Z</time>
      </trkpt>
      <trkpt lat="50.25207" lon="5.19893">
        <ele>306.45674715645</ele>
        <time>2017-06-08T16:34:11Z</time>
      </trkpt>
      <trkpt lat="50.25208" lon="5.19842">
        <ele>306.9500776412</ele>
        <time>2017-06-08T16:34:16Z</time>
      </trkpt>
      <trkpt lat="50.25206" lon="5.19802">
        <ele>307.23792409183</ele>
        <time>2017-06-08T16:34:20Z</time>
      </trkpt>
      <trkpt lat="50.25204" lon="5.19751">
        <ele>308.10349537304</ele>
        <time>2017-06-08T16:34:25Z</time>
      </trkpt>
      <trkpt lat="50.2521" lon="5.19712">
        <ele>308.55952898644</ele>
        <time>2017-06-08T16:34:29Z</time>
      </trkpt>
      <trkpt lat="50.2523" lon="5.19671">
        <ele>309.98691723329</ele>
        <time>2017-06-08T16:34:34Z</time>
      </trkpt>
      <trkpt lat="50.25246" lon="5.19641">
        <ele>311.51988890454</ele>
        <time>2017-06-08T16:34:38Z</time>
      </trkpt>
      <trkpt lat="50.25264" lon="5.19606">
        <ele>312.65891269344</ele>
        <time>2017-06-08T16:34:43Z</time>
      </trkpt>
      <trkpt lat="50.2528" lon="5.19577">
        <ele>313.46951427911</ele>
        <time>2017-06-08T16:34:47Z</time>
      </trkpt>
      <trkpt lat="50.25285" lon="5.1954">
        <ele>313.97027036253</ele>
        <time>2017-06-08T16:34:51Z</time>
      </trkpt>
      <trkpt lat="50.25273" lon="5.19498">
        <ele>313.09570210905</ele>
        <time>2017-06-08T16:34:56Z</time>
      </trkpt>
      <trkpt lat="50.25261" lon="5.19464">
        <ele>314.34441440833</ele>
        <time>2017-06-08T16:35:00Z</time>
      </trkpt>
      <trkpt lat="50.25248" lon="5.1943">
        <ele>314.47738636291</ele>
        <time>2017-06-08T16:35:04Z</time>
      </trkpt>
      <trkpt lat="50.25234" lon="5.19397">
        <ele>311.29690948359</ele>
        <time>2017-06-08T16:35:09Z</time>
      </trkpt>
      <trkpt lat="50.25222" lon="5.19368">
        <ele>309.13590747634</ele>
        <time>2017-06-08T16:35:14Z</time>
      </trkpt>
      <trkpt lat="50.25214" lon="5.19346">
        <ele>308.68214957794</ele>
        <time>2017-06-08T16:35:18Z</time>
      </trkpt>
      <trkpt lat="50.25223" lon="5.1932">
        <ele>308.83692164954</ele>
        <time>2017-06-08T16:35:23Z</time>
      </trkpt>
      <trkpt lat="50.25241" lon="5.19304">
        <ele>306.9982925493</ele>
        <time>2017-06-08T16:35:27Z</time>
      </trkpt>
      <trkpt lat="50.25268" lon="5.19278">
        <ele>305.54839382979</ele>
        <time>2017-06-08T16:35:31Z</time>
      </trkpt>
      <trkpt lat="50.25302" lon="5.19241">
        <ele>305.00270642314</ele>
        <time>2017-06-08T16:35:36Z</time>
      </trkpt>
      <trkpt lat="50.25326" lon="5.19205">
        <ele>303.71607152283</ele>
        <time>2017-06-08T16:35:40Z</time>
      </trkpt>
      <trkpt lat="50.25351" lon="5.19165">
        <ele>300.75758614738</ele>
        <time>2017-06-08T16:35:44Z</time>
      </trkpt>
      <trkpt lat="50.25381" lon="5.19114">
        <ele>299.95329771511</ele>
        <time>2017-06-08T16:35:49Z</time>
      </trkpt>
      <trkpt lat="50.25402" lon="5.19079">
        <ele>299.89269663231</ele>
        <time>2017-06-08T16:35:53Z</time>
      </trkpt>
      <trkpt lat="50.25428" lon="5.1904">
        <ele>300.03413821648</ele>
        <time>2017-06-08T16:35:58Z</time>
      </trkpt>
      <trkpt lat="50.25446" lon="5.19009">
        <ele>299.2655468885</ele>
        <time>2017-06-08T16:36:02Z</time>
      </trkpt>
      <trkpt lat="50.25464" lon="5.18978">
        <ele>298.81571292136</ele>
        <time>2017-06-08T16:36:06Z</time>
      </trkpt>
      <trkpt lat="50.25482" lon="5.1895">
        <ele>297.91658775313</ele>
        <time>2017-06-08T16:36:10Z</time>
      </trkpt>
      <trkpt lat="50.25502" lon="5.18922">
        <ele>298.1235286893</ele>
        <time>2017-06-08T16:36:14Z</time>
      </trkpt>
      <trkpt lat="50.25521" lon="5.18891">
        <ele>299.71324711094</ele>
        <time>2017-06-08T16:36:19Z</time>
      </trkpt>
      <trkpt lat="50.25539" lon="5.18865">
        <ele>301.56983356058</ele>
        <time>2017-06-08T16:36:23Z</time>
      </trkpt>
      <trkpt lat="50.25556" lon="5.18839">
        <ele>303.11858126389</ele>
        <time>2017-06-08T16:36:27Z</time>
      </trkpt>
      <trkpt lat="50.25572" lon="5.18815">
        <ele>304.38429817274</ele>
        <time>2017-06-08T16:36:31Z</time>
      </trkpt>
      <trkpt lat="50.25592" lon="5.18784">
        <ele>306.84258296469</ele>
        <time>2017-06-08T16:36:36Z</time>
      </trkpt>
      <trkpt lat="50.25608" lon="5.1876">
        <ele>308.92253965734</ele>
        <time>2017-06-08T16:36:40Z</time>
      </trkpt>
      <trkpt lat="50.25627" lon="5.1873">
        <ele>311.00193510152</ele>
        <time>2017-06-08T16:36:45Z</time>
      </trkpt>
      <trkpt lat="50.25643" lon="5.18705">
        <ele>312.37807210076</ele>
        <time>2017-06-08T16:36:49Z</time>
      </trkpt>
      <trkpt lat="50.25664" lon="5.18675">
        <ele>313.92728212516</ele>
        <time>2017-06-08T16:36:54Z</time>
      </trkpt>
      <trkpt lat="50.25682" lon="5.18652">
        <ele>315.36984952414</ele>
        <time>2017-06-08T16:36:58Z</time>
      </trkpt>
      <trkpt lat="50.257" lon="5.18631">
        <ele>316.3223036014</ele>
        <time>2017-06-08T16:37:02Z</time>
      </trkpt>
      <trkpt lat="50.25718" lon="5.18612">
        <ele>315.19925915865</ele>
        <time>2017-06-08T16:37:06Z</time>
      </trkpt>
      <trkpt lat="50.25742" lon="5.18591">
        <ele>311.55554305468</ele>
        <time>2017-06-08T16:37:11Z</time>
      </trkpt>
      <trkpt lat="50.25766" lon="5.18566">
        <ele>309.13752347164</ele>
        <time>2017-06-08T16:37:15Z</time>
      </trkpt>
      <trkpt lat="50.25793" lon="5.18535">
        <ele>307.64046436995</ele>
        <time>2017-06-08T16:37:19Z</time>
      </trkpt>
      <trkpt lat="50.2582" lon="5.18504">
        <ele>308.54057396821</ele>
        <time>2017-06-08T16:37:23Z</time>
      </trkpt>
      <trkpt lat="50.25852" lon="5.18468">
        <ele>310.11619129023</ele>
        <time>2017-06-08T16:37:27Z</time>
      </trkpt>
      <trkpt lat="50.25896" lon="5.1842">
        <ele>307.80605167067</ele>
        <time>2017-06-08T16:37:32Z</time>
      </trkpt>
      <trkpt lat="50.25934" lon="5.18382">
        <ele>306.00538369392</ele>
        <time>2017-06-08T16:37:36Z</time>
      </trkpt>
      <trkpt lat="50.25984" lon="5.18332">
        <ele>302.5393959226</ele>
        <time>2017-06-08T16:37:41Z</time>
      </trkpt>
      <trkpt lat="50.26025" lon="5.18292">
        <ele>299.87136706607</ele>
        <time>2017-06-08T16:37:45Z</time>
      </trkpt>
      <trkpt lat="50.26058" lon="5.18256">
        <ele>297.12775284953</ele>
        <time>2017-06-08T16:37:49Z</time>
      </trkpt>
      <trkpt lat="50.26088" lon="5.18219">
        <ele>292.30062976144</ele>
        <time>2017-06-08T16:37:54Z</time>
      </trkpt>
      <trkpt lat="50.26109" lon="5.18192">
        <ele>292.32595141773</ele>
        <time>2017-06-08T16:37:58Z</time>
      </trkpt>
      <trkpt lat="50.26129" lon="5.18169">
        <ele>294.0496923502</ele>
        <time>2017-06-08T16:38:02Z</time>
      </trkpt>
      <trkpt lat="50.26148" lon="5.18149">
        <ele>295.89316030516</ele>
        <time>2017-06-08T16:38:06Z</time>
      </trkpt>
      <trkpt lat="50.26167" lon="5.18131">
        <ele>297.83766323774</ele>
        <time>2017-06-08T16:38:10Z</time>
      </trkpt>
      <trkpt lat="50.2619" lon="5.18106">
        <ele>300.70373976241</ele>
        <time>2017-06-08T16:38:15Z</time>
      </trkpt>
      <trkpt lat="50.26209" lon="5.18085">
        <ele>301.59871911053</ele>
        <time>2017-06-08T16:38:19Z</time>
      </trkpt>
      <trkpt lat="50.26236" lon="5.18053">
        <ele>302.42285793624</ele>
        <time>2017-06-08T16:38:24Z</time>
      </trkpt>
      <trkpt lat="50.26265" lon="5.18016">
        <ele>303.11261081446</ele>
        <time>2017-06-08T16:38:29Z</time>
      </trkpt>
      <trkpt lat="50.26303" lon="5.1798">
        <ele>301.13546819585</ele>
        <time>2017-06-08T16:38:34Z</time>
      </trkpt>
      <trkpt lat="50.26345" lon="5.17953">
        <ele>297.73033966557</ele>
        <time>2017-06-08T16:38:39Z</time>
      </trkpt>
      <trkpt lat="50.26376" lon="5.17935">
        <ele>294.76773441906</ele>
        <time>2017-06-08T16:38:43Z</time>
      </trkpt>
      <trkpt lat="50.26406" lon="5.17916">
        <ele>290.62820151764</ele>
        <time>2017-06-08T16:38:48Z</time>
      </trkpt>
      <trkpt lat="50.26431" lon="5.17899">
        <ele>288.11059817534</ele>
        <time>2017-06-08T16:38:52Z</time>
      </trkpt>
      <trkpt lat="50.26459" lon="5.17879">
        <ele>290.20594157281</ele>
        <time>2017-06-08T16:38:57Z</time>
      </trkpt>
      <trkpt lat="50.26481" lon="5.17861">
        <ele>291.87239075554</ele>
        <time>2017-06-08T16:39:01Z</time>
      </trkpt>
      <trkpt lat="50.26505" lon="5.17839">
        <ele>292.63912565647</ele>
        <time>2017-06-08T16:39:06Z</time>
      </trkpt>
      <trkpt lat="50.26526" lon="5.17817">
        <ele>292.54148551228</ele>
        <time>2017-06-08T16:39:10Z</time>
      </trkpt>
      <trkpt lat="50.26547" lon="5.17788">
        <ele>292.69798858788</ele>
        <time>2017-06-08T16:39:15Z</time>
      </trkpt>
      <trkpt lat="50.26566" lon="5.17764">
        <ele>296.05521847824</ele>
        <time>2017-06-08T16:39:19Z</time>
      </trkpt>
      <trkpt lat="50.26587" lon="5.17736">
        <ele>302.63417375323</ele>
        <time>2017-06-08T16:39:23Z</time>
      </trkpt>
      <trkpt lat="50.26606" lon="5.17709">
        <ele>305.01910020054</ele>
        <time>2017-06-08T16:39:27Z</time>
      </trkpt>
      <trkpt lat="50.26625" lon="5.17684">
        <ele>304.40940532323</ele>
        <time>2017-06-08T16:39:31Z</time>
      </trkpt>
      <trkpt lat="50.26641" lon="5.17664">
        <ele>303.29473255672</ele>
        <time>2017-06-08T16:39:35Z</time>
      </trkpt>
      <trkpt lat="50.26659" lon="5.17641">
        <ele>301.81259313106</ele>
        <time>2017-06-08T16:39:39Z</time>
      </trkpt>
      <trkpt lat="50.26678" lon="5.17613">
        <ele>300.76236624777</ele>
        <time>2017-06-08T16:39:43Z</time>
      </trkpt>
      <trkpt lat="50.26703" lon="5.17578">
        <ele>302.27836160852</ele>
        <time>2017-06-08T16:39:48Z</time>
      </trkpt>
      <trkpt lat="50.26725" lon="5.17548">
        <ele>302.21869719066</ele>
        <time>2017-06-08T16:39:52Z</time>
      </trkpt>
      <trkpt lat="50.26743" lon="5.17517">
        <ele>301.72108223786</ele>
        <time>2017-06-08T16:39:56Z</time>
      </trkpt>
      <trkpt lat="50.2676" lon="5.17476">
        <ele>299.69381374316</ele>
        <time>2017-06-08T16:40:00Z</time>
      </trkpt>
      <trkpt lat="50.26779" lon="5.1742">
        <ele>297.60970086255</ele>
        <time>2017-06-08T16:40:05Z</time>
      </trkpt>
      <trkpt lat="50.26796" lon="5.17369">
        <ele>297.09250820887</ele>
        <time>2017-06-08T16:40:10Z</time>
      </trkpt>
      <trkpt lat="50.26808" lon="5.17333">
        <ele>296.60154960214</ele>
        <time>2017-06-08T16:40:14Z</time>
      </trkpt>
      <trkpt lat="50.26821" lon="5.17302">
        <ele>297.83106677917</ele>
        <time>2017-06-08T16:40:18Z</time>
      </trkpt>
      <trkpt lat="50.26839" lon="5.17281">
        <ele>300.53403288088</ele>
        <time>2017-06-08T16:40:22Z</time>
      </trkpt>
      <trkpt lat="50.26861" lon="5.17275">
        <ele>302.4022518643</ele>
        <time>2017-06-08T16:40:26Z</time>
      </trkpt>
      <trkpt lat="50.2689" lon="5.17277">
        <ele>305.61315642484</ele>
        <time>2017-06-08T16:40:31Z</time>
      </trkpt>
      <trkpt lat="50.26913" lon="5.17281">
        <ele>307.24857787489</ele>
        <time>2017-06-08T16:40:36Z</time>
      </trkpt>
      <trkpt lat="50.26935" lon="5.17285">
        <ele>310.21924442548</ele>
        <time>2017-06-08T16:40:40Z</time>
      </trkpt>
      <trkpt lat="50.26961" lon="5.17288">
        <ele>314.67204267605</ele>
        <time>2017-06-08T16:40:45Z</time>
      </trkpt>
      <trkpt lat="50.2698" lon="5.17292">
        <ele>315.58968664986</ele>
        <time>2017-06-08T16:40:49Z</time>
      </trkpt>
      <trkpt lat="50.27003" lon="5.17296">
        <ele>312.21263331966</ele>
        <time>2017-06-08T16:40:54Z</time>
      </trkpt>
      <trkpt lat="50.27027" lon="5.173">
        <ele>311.23118474468</ele>
        <time>2017-06-08T16:40:59Z</time>
      </trkpt>
      <trkpt lat="50.27054" lon="5.17305">
        <ele>312.94360378475</ele>
        <time>2017-06-08T16:41:04Z</time>
      </trkpt>
      <trkpt lat="50.27074" lon="5.1731">
        <ele>316.31494366373</ele>
        <time>2017-06-08T16:41:08Z</time>
      </trkpt>
      <trkpt lat="50.27092" lon="5.17314">
        <ele>316.83026882858</ele>
        <time>2017-06-08T16:41:12Z</time>
      </trkpt>
      <trkpt lat="50.27113" lon="5.17316">
        <ele>318.59205871385</ele>
        <time>2017-06-08T16:41:16Z</time>
      </trkpt>
      <trkpt lat="50.27134" lon="5.17318">
        <ele>320.34916940377</ele>
        <time>2017-06-08T16:41:20Z</time>
      </trkpt>
      <trkpt lat="50.27153" lon="5.17318">
        <ele>321.71921449656</ele>
        <time>2017-06-08T16:41:24Z</time>
      </trkpt>
      <trkpt lat="50.27172" lon="5.17315">
        <ele>322.43344905203</ele>
        <time>2017-06-08T16:41:28Z</time>
      </trkpt>
      <trkpt lat="50.2719" lon="5.17311">
        <ele>320.94466959841</ele>
        <time>2017-06-08T16:41:32Z</time>
      </trkpt>
      <trkpt lat="50.27214" lon="5.17304">
        <ele>318.4945075184</ele>
        <time>2017-06-08T16:41:37Z</time>
      </trkpt>
      <trkpt lat="50.27234" lon="5.17298">
        <ele>316.43975309004</ele>
        <time>2017-06-08T16:41:41Z</time>
      </trkpt>
      <trkpt lat="50.2726" lon="5.17294">
        <ele>317.4705213877</ele>
        <time>2017-06-08T16:41:46Z</time>
      </trkpt>
      <trkpt lat="50.27282" lon="5.17292">
        <ele>322.9543618758</ele>
        <time>2017-06-08T16:41:50Z</time>
      </trkpt>
      <trkpt lat="50.27305" lon="5.17287">
        <ele>326.39151048428</ele>
        <time>2017-06-08T16:41:54Z</time>
      </trkpt>
      <trkpt lat="50.27334" lon="5.17279">
        <ele>327.16208649346</ele>
        <time>2017-06-08T16:41:59Z</time>
      </trkpt>
      <trkpt lat="50.27356" lon="5.17275">
        <ele>327.32453221613</ele>
        <time>2017-06-08T16:42:03Z</time>
      </trkpt>
      <trkpt lat="50.27385" lon="5.17268">
        <ele>327.15778877856</ele>
        <time>2017-06-08T16:42:08Z</time>
      </trkpt>
      <trkpt lat="50.27409" lon="5.17259">
        <ele>325.38443803658</ele>
        <time>2017-06-08T16:42:12Z</time>
      </trkpt>
      <trkpt lat="50.27434" lon="5.17254">
        <ele>325.93919717057</ele>
        <time>2017-06-08T16:42:16Z</time>
      </trkpt>
      <trkpt lat="50.27462" lon="5.17243">
        <ele>330.99869934282</ele>
        <time>2017-06-08T16:42:20Z</time>
      </trkpt>
      <trkpt lat="50.27487" lon="5.17232">
        <ele>337.18785115599</ele>
        <time>2017-06-08T16:42:24Z</time>
      </trkpt>
      <trkpt lat="50.27511" lon="5.17226">
        <ele>340.60898742172</ele>
        <time>2017-06-08T16:42:28Z</time>
      </trkpt>
      <trkpt lat="50.27535" lon="5.17224">
        <ele>341.07955247458</ele>
        <time>2017-06-08T16:42:32Z</time>
      </trkpt>
      <trkpt lat="50.2756" lon="5.17226">
        <ele>340.94612838863</ele>
        <time>2017-06-08T16:42:36Z</time>
      </trkpt>
      <trkpt lat="50.27589" lon="5.17228">
        <ele>341.13522632131</ele>
        <time>2017-06-08T16:42:41Z</time>
      </trkpt>
      <trkpt lat="50.27617" lon="5.1723">
        <ele>340.13282859694</ele>
        <time>2017-06-08T16:42:46Z</time>
      </trkpt>
      <trkpt lat="50.27638" lon="5.17233">
        <ele>338.95948835786</ele>
        <time>2017-06-08T16:42:50Z</time>
      </trkpt>
      <trkpt lat="50.27667" lon="5.17234">
        <ele>338.51146737518</ele>
        <time>2017-06-08T16:42:55Z</time>
      </trkpt>
      <trkpt lat="50.27689" lon="5.17234">
        <ele>338.2644421888</ele>
        <time>2017-06-08T16:42:59Z</time>
      </trkpt>
      <trkpt lat="50.27718" lon="5.17232">
        <ele>337.98577154285</ele>
        <time>2017-06-08T16:43:04Z</time>
      </trkpt>
      <trkpt lat="50.2774" lon="5.17231">
        <ele>337.78459330546</ele>
        <time>2017-06-08T16:43:08Z</time>
      </trkpt>
      <trkpt lat="50.27769" lon="5.17229">
        <ele>340.41948593333</ele>
        <time>2017-06-08T16:43:13Z</time>
      </trkpt>
      <trkpt lat="50.27799" lon="5.17227">
        <ele>341.28097340576</ele>
        <time>2017-06-08T16:43:18Z</time>
      </trkpt>
      <trkpt lat="50.27828" lon="5.17229">
        <ele>340.14904526193</ele>
        <time>2017-06-08T16:43:23Z</time>
      </trkpt>
      <trkpt lat="50.27857" lon="5.17228">
        <ele>339.1393749954</ele>
        <time>2017-06-08T16:43:28Z</time>
      </trkpt>
      <trkpt lat="50.2788" lon="5.17233">
        <ele>338.62819915296</ele>
        <time>2017-06-08T16:43:32Z</time>
      </trkpt>
      <trkpt lat="50.27908" lon="5.17223">
        <ele>337.14526431461</ele>
        <time>2017-06-08T16:43:37Z</time>
      </trkpt>
      <trkpt lat="50.27935" lon="5.17206">
        <ele>336.10653572231</ele>
        <time>2017-06-08T16:43:41Z</time>
      </trkpt>
      <trkpt lat="50.27959" lon="5.17188">
        <ele>333.64467802166</ele>
        <time>2017-06-08T16:43:45Z</time>
      </trkpt>
      <trkpt lat="50.27972" lon="5.17179">
        <ele>333.3763575819</ele>
        <time>2017-06-08T16:43:49Z</time>
      </trkpt>
      <trkpt lat="50.27976" lon="5.17159">
        <ele>334.00813715098</ele>
        <time>2017-06-08T16:43:54Z</time>
      </trkpt>
      <trkpt lat="50.27964" lon="5.17125">
        <ele>332.76391698127</ele>
        <time>2017-06-08T16:43:59Z</time>
      </trkpt>
      <trkpt lat="50.27953" lon="5.17091">
        <ele>332.467618205</ele>
        <time>2017-06-08T16:44:03Z</time>
      </trkpt>
      <trkpt lat="50.27943" lon="5.17057">
        <ele>332.5595564274</ele>
        <time>2017-06-08T16:44:07Z</time>
      </trkpt>
      <trkpt lat="50.27932" lon="5.17026">
        <ele>332.11955436574</ele>
        <time>2017-06-08T16:44:11Z</time>
      </trkpt>
      <trkpt lat="50.2792" lon="5.16992">
        <ele>331.97255096479</ele>
        <time>2017-06-08T16:44:15Z</time>
      </trkpt>
      <trkpt lat="50.27904" lon="5.16948">
        <ele>331.97268562429</ele>
        <time>2017-06-08T16:44:20Z</time>
      </trkpt>
      <trkpt lat="50.27889" lon="5.16901">
        <ele>330.87630851795</ele>
        <time>2017-06-08T16:44:25Z</time>
      </trkpt>
      <trkpt lat="50.2788" lon="5.16861">
        <ele>329.10411361034</ele>
        <time>2017-06-08T16:44:29Z</time>
      </trkpt>
      <trkpt lat="50.27872" lon="5.16807">
        <ele>328.49667443315</ele>
        <time>2017-06-08T16:44:34Z</time>
      </trkpt>
      <trkpt lat="50.27865" lon="5.16763">
        <ele>327.79023395881</ele>
        <time>2017-06-08T16:44:38Z</time>
      </trkpt>
      <trkpt lat="50.27853" lon="5.16711">
        <ele>327.14543143788</ele>
        <time>2017-06-08T16:44:43Z</time>
      </trkpt>
      <trkpt lat="50.27844" lon="5.16669">
        <ele>326.3931663158</ele>
        <time>2017-06-08T16:44:47Z</time>
      </trkpt>
      <trkpt lat="50.27831" lon="5.16617">
        <ele>326.07592070548</ele>
        <time>2017-06-08T16:44:52Z</time>
      </trkpt>
      <trkpt lat="50.27818" lon="5.16567">
        <ele>325.46678872814</ele>
        <time>2017-06-08T16:44:57Z</time>
      </trkpt>
      <trkpt lat="50.27808" lon="5.16526">
        <ele>324.3399852887</ele>
        <time>2017-06-08T16:45:01Z</time>
      </trkpt>
      <trkpt lat="50.27794" lon="5.16477">
        <ele>323.29315750355</ele>
        <time>2017-06-08T16:45:06Z</time>
      </trkpt>
      <trkpt lat="50.27781" lon="5.16438">
        <ele>323.67847982282</ele>
        <time>2017-06-08T16:45:10Z</time>
      </trkpt>
      <trkpt lat="50.27764" lon="5.16402">
        <ele>323.39517054</ele>
        <time>2017-06-08T16:45:14Z</time>
      </trkpt>
      <trkpt lat="50.27744" lon="5.16361">
        <ele>324.06671119861</ele>
        <time>2017-06-08T16:45:19Z</time>
      </trkpt>
      <trkpt lat="50.27728" lon="5.16328">
        <ele>324.17044795112</ele>
        <time>2017-06-08T16:45:23Z</time>
      </trkpt>
      <trkpt lat="50.27714" lon="5.16293">
        <ele>321.51737518294</ele>
        <time>2017-06-08T16:45:27Z</time>
      </trkpt>
      <trkpt lat="50.27698" lon="5.16256">
        <ele>320.61701255429</ele>
        <time>2017-06-08T16:45:32Z</time>
      </trkpt>
      <trkpt lat="50.27695" lon="5.16228">
        <ele>319.25478257626</ele>
        <time>2017-06-08T16:45:36Z</time>
      </trkpt>
      <trkpt lat="50.27718" lon="5.16197">
        <ele>314.01674330243</ele>
        <time>2017-06-08T16:45:41Z</time>
      </trkpt>
      <trkpt lat="50.27741" lon="5.16163">
        <ele>311.42611465819</ele>
        <time>2017-06-08T16:45:45Z</time>
      </trkpt>
      <trkpt lat="50.27765" lon="5.16124">
        <ele>306.91771554964</ele>
        <time>2017-06-08T16:45:49Z</time>
      </trkpt>
      <trkpt lat="50.27798" lon="5.16089">
        <ele>305.90495980572</ele>
        <time>2017-06-08T16:45:54Z</time>
      </trkpt>
      <trkpt lat="50.27827" lon="5.16064">
        <ele>304.86948884659</ele>
        <time>2017-06-08T16:45:58Z</time>
      </trkpt>
      <trkpt lat="50.27863" lon="5.16038">
        <ele>301.08864329268</ele>
        <time>2017-06-08T16:46:03Z</time>
      </trkpt>
      <trkpt lat="50.27886" lon="5.16021">
        <ele>296.47083604748</ele>
        <time>2017-06-08T16:46:07Z</time>
      </trkpt>
      <trkpt lat="50.27874" lon="5.15909">
        <ele>292.72027147427</ele>
        <time>2017-06-08T16:46:18Z</time>
      </trkpt>
      <trkpt lat="50.27854" lon="5.15874">
        <ele>294.49265725118</ele>
        <time>2017-06-08T16:46:22Z</time>
      </trkpt>
      <trkpt lat="50.2783" lon="5.15835">
        <ele>298.69699025413</ele>
        <time>2017-06-08T16:46:27Z</time>
      </trkpt>
      <trkpt lat="50.2783" lon="5.15803">
        <ele>301.12304014177</ele>
        <time>2017-06-08T16:46:31Z</time>
      </trkpt>
      <trkpt lat="50.27856" lon="5.1577">
        <ele>303.2156767629</ele>
        <time>2017-06-08T16:46:36Z</time>
      </trkpt>
      <trkpt lat="50.2788" lon="5.15746">
        <ele>298.32274149003</ele>
        <time>2017-06-08T16:46:40Z</time>
      </trkpt>
      <trkpt lat="50.27901" lon="5.15707">
        <ele>294.69400221454</ele>
        <time>2017-06-08T16:46:45Z</time>
      </trkpt>
      <trkpt lat="50.27906" lon="5.15671">
        <ele>293.60284701835</ele>
        <time>2017-06-08T16:46:49Z</time>
      </trkpt>
      <trkpt lat="50.27908" lon="5.15633">
        <ele>293.01565165077</ele>
        <time>2017-06-08T16:46:53Z</time>
      </trkpt>
      <trkpt lat="50.27907" lon="5.15588">
        <ele>292.14035339839</ele>
        <time>2017-06-08T16:46:58Z</time>
      </trkpt>
      <trkpt lat="50.27906" lon="5.15553">
        <ele>292.23514520529</ele>
        <time>2017-06-08T16:47:02Z</time>
      </trkpt>
      <trkpt lat="50.27904" lon="5.15515">
        <ele>294.31563805696</ele>
        <time>2017-06-08T16:47:07Z</time>
      </trkpt>
      <trkpt lat="50.27903" lon="5.15483">
        <ele>296.49517205243</ele>
        <time>2017-06-08T16:47:11Z</time>
      </trkpt>
      <trkpt lat="50.27901" lon="5.1545">
        <ele>298.40671901744</ele>
        <time>2017-06-08T16:47:15Z</time>
      </trkpt>
      <trkpt lat="50.27897" lon="5.15416">
        <ele>299.02319269173</ele>
        <time>2017-06-08T16:47:19Z</time>
      </trkpt>
      <trkpt lat="50.27897" lon="5.15365">
        <ele>298.11087369303</ele>
        <time>2017-06-08T16:47:24Z</time>
      </trkpt>
      <trkpt lat="50.27902" lon="5.15322">
        <ele>296.88611258587</ele>
        <time>2017-06-08T16:47:28Z</time>
      </trkpt>
      <trkpt lat="50.27906" lon="5.15296">
        <ele>296.85288574908</ele>
        <time>2017-06-08T16:47:32Z</time>
      </trkpt>
      <trkpt lat="50.27924" lon="5.15269">
        <ele>294.22852622894</ele>
        <time>2017-06-08T16:47:37Z</time>
      </trkpt>
      <trkpt lat="50.27945" lon="5.15241">
        <ele>291.88150729564</ele>
        <time>2017-06-08T16:47:41Z</time>
      </trkpt>
      <trkpt lat="50.27977" lon="5.15213">
        <ele>289.79640432798</ele>
        <time>2017-06-08T16:47:46Z</time>
      </trkpt>
      <trkpt lat="50.28009" lon="5.1519">
        <ele>288.30189432008</ele>
        <time>2017-06-08T16:47:51Z</time>
      </trkpt>
      <trkpt lat="50.28034" lon="5.15171">
        <ele>287.72750868571</ele>
        <time>2017-06-08T16:47:55Z</time>
      </trkpt>
      <trkpt lat="50.2806" lon="5.15151">
        <ele>287.63939939917</ele>
        <time>2017-06-08T16:47:59Z</time>
      </trkpt>
      <trkpt lat="50.28084" lon="5.15134">
        <ele>288.34123532619</ele>
        <time>2017-06-08T16:48:03Z</time>
      </trkpt>
      <trkpt lat="50.28104" lon="5.15121">
        <ele>288.78006248421</ele>
        <time>2017-06-08T16:48:06Z</time>
      </trkpt>
      <trkpt lat="50.28111" lon="5.15117">
        <ele>288.40326007328</ele>
        <time>2017-06-08T16:48:12Z</time>
      </trkpt>
      <trkpt lat="50.28143" lon="5.15073">
        <ele>284.77085821261</ele>
        <time>2017-06-08T16:48:17Z</time>
      </trkpt>
      <trkpt lat="50.28162" lon="5.15006">
        <ele>281.44467441431</ele>
        <time>2017-06-08T16:48:21Z</time>
      </trkpt>
      <trkpt lat="50.28189" lon="5.14939">
        <ele>278.62796316244</ele>
        <time>2017-06-08T16:48:25Z</time>
      </trkpt>
      <trkpt lat="50.28229" lon="5.14872">
        <ele>276.84525721236</ele>
        <time>2017-06-08T16:48:30Z</time>
      </trkpt>
      <trkpt lat="50.28265" lon="5.14823">
        <ele>277.44722010127</ele>
        <time>2017-06-08T16:48:35Z</time>
      </trkpt>
      <trkpt lat="50.28286" lon="5.14786">
        <ele>279.81920089451</ele>
        <time>2017-06-08T16:48:39Z</time>
      </trkpt>
      <trkpt lat="50.28289" lon="5.14748">
        <ele>280.53245716422</ele>
        <time>2017-06-08T16:48:43Z</time>
      </trkpt>
      <trkpt lat="50.28289" lon="5.14701">
        <ele>284.60713606082</ele>
        <time>2017-06-08T16:48:48Z</time>
      </trkpt>
      <trkpt lat="50.2829" lon="5.14674">
        <ele>288.15514256638</ele>
        <time>2017-06-08T16:48:52Z</time>
      </trkpt>
      <trkpt lat="50.28295" lon="5.14639">
        <ele>289.24732770398</ele>
        <time>2017-06-08T16:48:56Z</time>
      </trkpt>
      <trkpt lat="50.28301" lon="5.14594">
        <ele>287.54256068477</ele>
        <time>2017-06-08T16:49:01Z</time>
      </trkpt>
      <trkpt lat="50.28304" lon="5.14566">
        <ele>288.77135750129</ele>
        <time>2017-06-08T16:49:05Z</time>
      </trkpt>
      <trkpt lat="50.28304" lon="5.14541">
        <ele>290.50989049961</ele>
        <time>2017-06-08T16:49:10Z</time>
      </trkpt>
      <trkpt lat="50.28307" lon="5.14519">
        <ele>292.77096328016</ele>
        <time>2017-06-08T16:49:14Z</time>
      </trkpt>
      <trkpt lat="50.28311" lon="5.14496">
        <ele>293.42659290816</ele>
        <time>2017-06-08T16:49:18Z</time>
      </trkpt>
      <trkpt lat="50.28316" lon="5.14468">
        <ele>293.6199134015</ele>
        <time>2017-06-08T16:49:23Z</time>
      </trkpt>
      <trkpt lat="50.28319" lon="5.14447">
        <ele>294.39138174324</ele>
        <time>2017-06-08T16:49:27Z</time>
      </trkpt>
      <trkpt lat="50.28324" lon="5.14424">
        <ele>294.76285346239</ele>
        <time>2017-06-08T16:49:32Z</time>
      </trkpt>
      <trkpt lat="50.28329" lon="5.14395">
        <ele>295.53970605379</ele>
        <time>2017-06-08T16:49:37Z</time>
      </trkpt>
      <trkpt lat="50.28331" lon="5.14365">
        <ele>296.38818446487</ele>
        <time>2017-06-08T16:49:42Z</time>
      </trkpt>
      <trkpt lat="50.28335" lon="5.14336">
        <ele>297.36725750314</ele>
        <time>2017-06-08T16:49:47Z</time>
      </trkpt>
      <trkpt lat="50.2834" lon="5.14312">
        <ele>297.80563952874</ele>
        <time>2017-06-08T16:49:51Z</time>
      </trkpt>
      <trkpt lat="50.28348" lon="5.14277">
        <ele>295.3605905819</ele>
        <time>2017-06-08T16:49:56Z</time>
      </trkpt>
      <trkpt lat="50.28353" lon="5.14252">
        <ele>294.40220979431</ele>
        <time>2017-06-08T16:50:00Z</time>
      </trkpt>
      <trkpt lat="50.28359" lon="5.14229">
        <ele>294.52356961247</ele>
        <time>2017-06-08T16:50:04Z</time>
      </trkpt>
      <trkpt lat="50.28369" lon="5.14202">
        <ele>296.97182146739</ele>
        <time>2017-06-08T16:50:08Z</time>
      </trkpt>
      <trkpt lat="50.28378" lon="5.14177">
        <ele>298.33580468309</ele>
        <time>2017-06-08T16:50:12Z</time>
      </trkpt>
      <trkpt lat="50.28389" lon="5.14147">
        <ele>297.19938789218</ele>
        <time>2017-06-08T16:50:17Z</time>
      </trkpt>
      <trkpt lat="50.28399" lon="5.1412">
        <ele>296.08344263277</ele>
        <time>2017-06-08T16:50:22Z</time>
      </trkpt>
      <trkpt lat="50.28408" lon="5.14093">
        <ele>295.93146225158</ele>
        <time>2017-06-08T16:50:26Z</time>
      </trkpt>
      <trkpt lat="50.28418" lon="5.14063">
        <ele>299.51895995686</ele>
        <time>2017-06-08T16:50:30Z</time>
      </trkpt>
      <trkpt lat="50.28433" lon="5.14028">
        <ele>304.72681147856</ele>
        <time>2017-06-08T16:50:35Z</time>
      </trkpt>
      <trkpt lat="50.28442" lon="5.14001">
        <ele>307.08971982594</ele>
        <time>2017-06-08T16:50:39Z</time>
      </trkpt>
      <trkpt lat="50.28453" lon="5.13969">
        <ele>309.3744894077</ele>
        <time>2017-06-08T16:50:43Z</time>
      </trkpt>
      <trkpt lat="50.28463" lon="5.13938">
        <ele>310.42703868418</ele>
        <time>2017-06-08T16:50:47Z</time>
      </trkpt>
      <trkpt lat="50.28474" lon="5.13901">
        <ele>309.68411265679</ele>
        <time>2017-06-08T16:50:52Z</time>
      </trkpt>
      <trkpt lat="50.28489" lon="5.13867">
        <ele>311.91769995888</ele>
        <time>2017-06-08T16:50:56Z</time>
      </trkpt>
      <trkpt lat="50.28503" lon="5.13827">
        <ele>312.12873620814</ele>
        <time>2017-06-08T16:51:01Z</time>
      </trkpt>
      <trkpt lat="50.28517" lon="5.13781">
        <ele>310.63659386524</ele>
        <time>2017-06-08T16:51:06Z</time>
      </trkpt>
      <trkpt lat="50.28531" lon="5.13716">
        <ele>306.05610041041</ele>
        <time>2017-06-08T16:51:11Z</time>
      </trkpt>
      <trkpt lat="50.28536" lon="5.1366">
        <ele>301.82643079522</ele>
        <time>2017-06-08T16:51:15Z</time>
      </trkpt>
      <trkpt lat="50.28529" lon="5.13582">
        <ele>298.87928696346</ele>
        <time>2017-06-08T16:51:20Z</time>
      </trkpt>
      <trkpt lat="50.2853" lon="5.13512">
        <ele>296.31816977535</ele>
        <time>2017-06-08T16:51:24Z</time>
      </trkpt>
      <trkpt lat="50.28544" lon="5.13439">
        <ele>292.81911583039</ele>
        <time>2017-06-08T16:51:28Z</time>
      </trkpt>
      <trkpt lat="50.2856" lon="5.13366">
        <ele>291.29514004746</ele>
        <time>2017-06-08T16:51:32Z</time>
      </trkpt>
      <trkpt lat="50.28578" lon="5.13277">
        <ele>287.14177105885</ele>
        <time>2017-06-08T16:51:37Z</time>
      </trkpt>
      <trkpt lat="50.28592" lon="5.13208">
        <ele>284.72509151733</ele>
        <time>2017-06-08T16:51:41Z</time>
      </trkpt>
      <trkpt lat="50.28609" lon="5.13119">
        <ele>280.41678923515</ele>
        <time>2017-06-08T16:51:46Z</time>
      </trkpt>
      <trkpt lat="50.28624" lon="5.13037">
        <ele>277.69890456398</ele>
        <time>2017-06-08T16:51:51Z</time>
      </trkpt>
      <trkpt lat="50.28635" lon="5.12977">
        <ele>276.67954288507</ele>
        <time>2017-06-08T16:51:55Z</time>
      </trkpt>
      <trkpt lat="50.28648" lon="5.12907">
        <ele>277.32844791142</ele>
        <time>2017-06-08T16:52:00Z</time>
      </trkpt>
      <trkpt lat="50.28661" lon="5.12845">
        <ele>278.46946994038</ele>
        <time>2017-06-08T16:52:05Z</time>
      </trkpt>
      <trkpt lat="50.28671" lon="5.12791">
        <ele>279.41942283078</ele>
        <time>2017-06-08T16:52:10Z</time>
      </trkpt>
      <trkpt lat="50.28679" lon="5.12752">
        <ele>278.24062032771</ele>
        <time>2017-06-08T16:52:14Z</time>
      </trkpt>
      <trkpt lat="50.28689" lon="5.12712">
        <ele>275.74438402395</ele>
        <time>2017-06-08T16:52:18Z</time>
      </trkpt>
      <trkpt lat="50.28703" lon="5.12671">
        <ele>274.81969181216</ele>
        <time>2017-06-08T16:52:23Z</time>
      </trkpt>
      <trkpt lat="50.28715" lon="5.1263">
        <ele>276.68409230206</ele>
        <time>2017-06-08T16:52:28Z</time>
      </trkpt>
      <trkpt lat="50.28723" lon="5.12597">
        <ele>277.11635232993</ele>
        <time>2017-06-08T16:52:32Z</time>
      </trkpt>
      <trkpt lat="50.28733" lon="5.12558">
        <ele>279.34220172518</ele>
        <time>2017-06-08T16:52:37Z</time>
      </trkpt>
      <trkpt lat="50.28741" lon="5.12525">
        <ele>281.57837860822</ele>
        <time>2017-06-08T16:52:41Z</time>
      </trkpt>
      <trkpt lat="50.28748" lon="5.12494">
        <ele>283.20003599725</ele>
        <time>2017-06-08T16:52:45Z</time>
      </trkpt>
      <trkpt lat="50.28752" lon="5.12462">
        <ele>283.71635240973</ele>
        <time>2017-06-08T16:52:49Z</time>
      </trkpt>
      <trkpt lat="50.28758" lon="5.12418">
        <ele>283.22778946552</ele>
        <time>2017-06-08T16:52:54Z</time>
      </trkpt>
      <trkpt lat="50.28764" lon="5.12382">
        <ele>281.53788985584</ele>
        <time>2017-06-08T16:52:58Z</time>
      </trkpt>
      <trkpt lat="50.28774" lon="5.12335">
        <ele>277.95154202286</ele>
        <time>2017-06-08T16:53:03Z</time>
      </trkpt>
      <trkpt lat="50.28785" lon="5.12294">
        <ele>275.71439988407</ele>
        <time>2017-06-08T16:53:07Z</time>
      </trkpt>
      <trkpt lat="50.28799" lon="5.12252">
        <ele>274.46889428943</ele>
        <time>2017-06-08T16:53:11Z</time>
      </trkpt>
      <trkpt lat="50.28813" lon="5.12211">
        <ele>276.59928905109</ele>
        <time>2017-06-08T16:53:15Z</time>
      </trkpt>
      <trkpt lat="50.28827" lon="5.1217">
        <ele>278.87526665566</ele>
        <time>2017-06-08T16:53:19Z</time>
      </trkpt>
      <trkpt lat="50.28842" lon="5.12123">
        <ele>280.27537892907</ele>
        <time>2017-06-08T16:53:24Z</time>
      </trkpt>
      <trkpt lat="50.28853" lon="5.12087">
        <ele>280.65159597728</ele>
        <time>2017-06-08T16:53:28Z</time>
      </trkpt>
      <trkpt lat="50.28864" lon="5.12052">
        <ele>280.08644898418</ele>
        <time>2017-06-08T16:53:32Z</time>
      </trkpt>
      <trkpt lat="50.28876" lon="5.12016">
        <ele>278.3018987279</ele>
        <time>2017-06-08T16:53:36Z</time>
      </trkpt>
      <trkpt lat="50.28888" lon="5.11977">
        <ele>277.00287698171</ele>
        <time>2017-06-08T16:53:40Z</time>
      </trkpt>
      <trkpt lat="50.28901" lon="5.11937">
        <ele>276.34060669125</ele>
        <time>2017-06-08T16:53:44Z</time>
      </trkpt>
      <trkpt lat="50.28913" lon="5.11896">
        <ele>274.91517060259</ele>
        <time>2017-06-08T16:53:48Z</time>
      </trkpt>
      <trkpt lat="50.28928" lon="5.11851">
        <ele>274.13515058323</ele>
        <time>2017-06-08T16:53:53Z</time>
      </trkpt>
      <trkpt lat="50.28939" lon="5.11815">
        <ele>273.15936256635</ele>
        <time>2017-06-08T16:53:57Z</time>
      </trkpt>
      <trkpt lat="50.28951" lon="5.11779">
        <ele>273.36021022374</ele>
        <time>2017-06-08T16:54:01Z</time>
      </trkpt>
      <trkpt lat="50.28962" lon="5.11744">
        <ele>273.90316018548</ele>
        <time>2017-06-08T16:54:05Z</time>
      </trkpt>
      <trkpt lat="50.28972" lon="5.1171">
        <ele>274.20133800621</ele>
        <time>2017-06-08T16:54:09Z</time>
      </trkpt>
      <trkpt lat="50.2898" lon="5.11677">
        <ele>276.11667354896</ele>
        <time>2017-06-08T16:54:13Z</time>
      </trkpt>
      <trkpt lat="50.28986" lon="5.1164">
        <ele>278.16514326535</ele>
        <time>2017-06-08T16:54:18Z</time>
      </trkpt>
      <trkpt lat="50.28993" lon="5.11601">
        <ele>278.58666658954</ele>
        <time>2017-06-08T16:54:23Z</time>
      </trkpt>
      <trkpt lat="50.28997" lon="5.11577">
        <ele>279.39103078555</ele>
        <time>2017-06-08T16:54:27Z</time>
      </trkpt>
      <trkpt lat="50.29003" lon="5.11555">
        <ele>281.64407388399</ele>
        <time>2017-06-08T16:54:31Z</time>
      </trkpt>
      <trkpt lat="50.29013" lon="5.11531">
        <ele>283.94109587618</ele>
        <time>2017-06-08T16:54:35Z</time>
      </trkpt>
      <trkpt lat="50.29027" lon="5.11504">
        <ele>285.90759723873</ele>
        <time>2017-06-08T16:54:40Z</time>
      </trkpt>
      <trkpt lat="50.29042" lon="5.11476">
        <ele>287.36965160697</ele>
        <time>2017-06-08T16:54:45Z</time>
      </trkpt>
      <trkpt lat="50.29057" lon="5.11447">
        <ele>287.97438462959</ele>
        <time>2017-06-08T16:54:50Z</time>
      </trkpt>
      <trkpt lat="50.2907" lon="5.11422">
        <ele>289.14230487817</ele>
        <time>2017-06-08T16:54:54Z</time>
      </trkpt>
      <trkpt lat="50.29086" lon="5.11394">
        <ele>291.34135605458</ele>
        <time>2017-06-08T16:54:58Z</time>
      </trkpt>
      <trkpt lat="50.29106" lon="5.11358">
        <ele>292.13298832267</ele>
        <time>2017-06-08T16:55:02Z</time>
      </trkpt>
      <trkpt lat="50.29131" lon="5.11313">
        <ele>290.39663020981</ele>
        <time>2017-06-08T16:55:07Z</time>
      </trkpt>
      <trkpt lat="50.29152" lon="5.11271">
        <ele>289.02737415332</ele>
        <time>2017-06-08T16:55:11Z</time>
      </trkpt>
      <trkpt lat="50.29182" lon="5.11215">
        <ele>285.70829705734</ele>
        <time>2017-06-08T16:55:16Z</time>
      </trkpt>
      <trkpt lat="50.2921" lon="5.11166">
        <ele>282.93392992883</ele>
        <time>2017-06-08T16:55:20Z</time>
      </trkpt>
      <trkpt lat="50.29238" lon="5.11108">
        <ele>280.12568353843</ele>
        <time>2017-06-08T16:55:24Z</time>
      </trkpt>
      <trkpt lat="50.29262" lon="5.11047">
        <ele>278.06017599742</ele>
        <time>2017-06-08T16:55:28Z</time>
      </trkpt>
      <trkpt lat="50.29291" lon="5.10968">
        <ele>273.91011186662</ele>
        <time>2017-06-08T16:55:33Z</time>
      </trkpt>
      <trkpt lat="50.29315" lon="5.10904">
        <ele>269.59865066038</ele>
        <time>2017-06-08T16:55:37Z</time>
      </trkpt>
      <trkpt lat="50.29348" lon="5.10849">
        <ele>264.0487139493</ele>
        <time>2017-06-08T16:55:42Z</time>
      </trkpt>
      <trkpt lat="50.29376" lon="5.10809">
        <ele>264.31988638422</ele>
        <time>2017-06-08T16:55:47Z</time>
      </trkpt>
      <trkpt lat="50.29395" lon="5.10783">
        <ele>266.37609040638</ele>
        <time>2017-06-08T16:55:51Z</time>
      </trkpt>
      <trkpt lat="50.29417" lon="5.10757">
        <ele>269.48970226522</ele>
        <time>2017-06-08T16:55:56Z</time>
      </trkpt>
      <trkpt lat="50.29434" lon="5.10774">
        <ele>270.32886855912</ele>
        <time>2017-06-08T16:56:00Z</time>
      </trkpt>
      <trkpt lat="50.29453" lon="5.10802">
        <ele>272.10868462873</ele>
        <time>2017-06-08T16:56:04Z</time>
      </trkpt>
      <trkpt lat="50.29472" lon="5.10831">
        <ele>277.72982954637</ele>
        <time>2017-06-08T16:56:08Z</time>
      </trkpt>
      <trkpt lat="50.29489" lon="5.10856">
        <ele>279.66760376902</ele>
        <time>2017-06-08T16:56:12Z</time>
      </trkpt>
      <trkpt lat="50.29514" lon="5.10889">
        <ele>278.66103004452</ele>
        <time>2017-06-08T16:56:17Z</time>
      </trkpt>
      <trkpt lat="50.29538" lon="5.10918">
        <ele>278.17447257726</ele>
        <time>2017-06-08T16:56:21Z</time>
      </trkpt>
      <trkpt lat="50.29555" lon="5.10941">
        <ele>276.36428658957</ele>
        <time>2017-06-08T16:56:24Z</time>
      </trkpt>
      <trkpt lat="50.29627" lon="5.10866">
        <ele>271.59366412723</ele>
        <time>2017-06-08T16:56:45Z</time>
      </trkpt>
      <trkpt lat="50.29626" lon="5.10833">
        <ele>270.64781549905</ele>
        <time>2017-06-08T16:56:47Z</time>
      </trkpt>
      <trkpt lat="50.29598" lon="5.10588">
        <ele>253.58514642554</ele>
        <time>2017-06-08T16:57:18Z</time>
      </trkpt>
      <trkpt lat="50.29598" lon="5.10576">
        <ele>253.20303921122</ele>
        <time>2017-06-08T16:57:20Z</time>
      </trkpt>
      <trkpt lat="50.29642" lon="5.10507">
        <ele>260.01479993253</ele>
        <time>2017-06-08T16:57:36Z</time>
      </trkpt>
      <trkpt lat="50.29642" lon="5.1049">
        <ele>262.01860540919</ele>
        <time>2017-06-08T16:57:38Z</time>
      </trkpt>
      <trkpt lat="50.297" lon="5.10449">
        <ele>267.91924199866</ele>
        <time>2017-06-08T16:57:53Z</time>
      </trkpt>
      <trkpt lat="50.29711" lon="5.1044">
        <ele>269.25685232341</ele>
        <time>2017-06-08T16:57:56Z</time>
      </trkpt>
      <trkpt lat="50.29737" lon="5.10412">
        <ele>264.69014375617</ele>
        <time>2017-06-08T16:58:32Z</time>
      </trkpt>
      <trkpt lat="50.29737" lon="5.10412">
        <ele>264.68784149137</ele>
        <time>2017-06-08T16:58:32Z</time>
      </trkpt>
      <trkpt lat="50.29762" lon="5.10322">
        <ele>268.00811930616</ele>
        <time>2017-06-08T16:58:53Z</time>
      </trkpt>
      <trkpt lat="50.29755" lon="5.10297">
        <ele>267.92230575438</ele>
        <time>2017-06-08T16:58:55Z</time>
      </trkpt>
      <trkpt lat="50.29727" lon="5.10247">
        <ele>273.82675944442</ele>
        <time>2017-06-08T16:59:11Z</time>
      </trkpt>
      <trkpt lat="50.29715" lon="5.10233">
        <ele>276.50512147984</ele>
        <time>2017-06-08T16:59:13Z</time>
      </trkpt>
      <trkpt lat="50.29623" lon="5.10097">
        <ele>264.57892788936</ele>
        <time>2017-06-08T16:59:39Z</time>
      </trkpt>
      <trkpt lat="50.29606" lon="5.10064">
        <ele>265.21832239099</ele>
        <time>2017-06-08T16:59:43Z</time>
      </trkpt>
      <trkpt lat="50.2959" lon="5.10041">
        <ele>265.39408072052</ele>
        <time>2017-06-08T16:59:47Z</time>
      </trkpt>
      <trkpt lat="50.29585" lon="5.10036">
        <ele>265.31895436907</ele>
        <time>2017-06-08T16:59:48Z</time>
      </trkpt>
      <trkpt lat="50.29479" lon="5.09957">
        <ele>266.70741203514</ele>
        <time>2017-06-08T17:00:08Z</time>
      </trkpt>
      <trkpt lat="50.29474" lon="5.09953">
        <ele>267.02936877656</ele>
        <time>2017-06-08T17:00:09Z</time>
      </trkpt>
      <trkpt lat="50.29407" lon="5.09891">
        <ele>266.21071340148</ele>
        <time>2017-06-08T17:00:25Z</time>
      </trkpt>
      <trkpt lat="50.29385" lon="5.09864">
        <ele>266.55437941015</ele>
        <time>2017-06-08T17:00:29Z</time>
      </trkpt>
      <trkpt lat="50.29371" lon="5.09841">
        <ele>264.7140683579</ele>
        <time>2017-06-08T17:00:33Z</time>
      </trkpt>
      <trkpt lat="50.29358" lon="5.09821">
        <ele>264.52107717784</ele>
        <time>2017-06-08T17:00:36Z</time>
      </trkpt>
      <trkpt lat="50.29385" lon="5.09705">
        <ele>253.62195403635</ele>
        <time>2017-06-08T17:00:57Z</time>
      </trkpt>
      <trkpt lat="50.29399" lon="5.09686">
        <ele>251.7845333939</ele>
        <time>2017-06-08T17:01:00Z</time>
      </trkpt>
      <trkpt lat="50.29318" lon="5.0958">
        <ele>258.11313220994</ele>
        <time>2017-06-08T17:01:41Z</time>
      </trkpt>
      <trkpt lat="50.29318" lon="5.0958">
        <ele>256.78082109387</ele>
        <time>2017-06-08T17:01:45Z</time>
      </trkpt>
      <trkpt lat="50.29322" lon="5.09561">
        <ele>254.85724778252</ele>
        <time>2017-06-08T17:01:47Z</time>
      </trkpt>
      <trkpt lat="50.29334" lon="5.09543">
        <ele>253.49000028154</ele>
        <time>2017-06-08T17:01:52Z</time>
      </trkpt>
      <trkpt lat="50.29346" lon="5.09524">
        <ele>250.18838777137</ele>
        <time>2017-06-08T17:01:56Z</time>
      </trkpt>
      <trkpt lat="50.29358" lon="5.09506">
        <ele>249.3998329998</ele>
        <time>2017-06-08T17:02:01Z</time>
      </trkpt>
      <trkpt lat="50.29368" lon="5.09507">
        <ele>248.9617822924</ele>
        <time>2017-06-08T17:02:05Z</time>
      </trkpt>
      <trkpt lat="50.29381" lon="5.09525">
        <ele>249.88399558756</ele>
        <time>2017-06-08T17:02:10Z</time>
      </trkpt>
      <trkpt lat="50.2939" lon="5.09539">
        <ele>254.81222672804</ele>
        <time>2017-06-08T17:02:14Z</time>
      </trkpt>
      <trkpt lat="50.29402" lon="5.09556">
        <ele>255.984270058</ele>
        <time>2017-06-08T17:02:19Z</time>
      </trkpt>
      <trkpt lat="50.29405" lon="5.09561">
        <ele>260.21903673658</ele>
        <time>2017-06-08T17:03:11Z</time>
      </trkpt>
      <trkpt lat="50.29414" lon="5.09528">
        <ele>260.37777006426</ele>
        <time>2017-06-08T17:03:15Z</time>
      </trkpt>
      <trkpt lat="50.29414" lon="5.09528">
        <ele>260.00684738281</ele>
        <time>2017-06-08T17:04:04Z</time>
      </trkpt>
      <trkpt lat="50.29414" lon="5.09528">
        <ele>260.00684738281</ele>
        <time>2017-06-08T17:04:04Z</time>
      </trkpt>
    </trkseg>
  </trk>
</gpx>